<?xml version='1.0' encoding='UTF-8'?><gpx version="1.1" creator="JPX - https://github.com/jenetics/jpx" xmlns="http://www.topografix.com/GPX/1/1"><trk><trkseg><trkpt lat="45.69423018380947" lon="11.880774170628499"><ele>54.0</ele><time>2026-05-02T09:45:29Z</time></trkpt><trkpt lat="45.69423302298892" lon="11.88089022353153"><ele>54.00000000000001</ele><time>2026-05-02T09:45:31Z</time></trkpt><trkpt lat="45.69423139467685" lon="11.881039361955034"><ele>54.00000000000001</ele><time>2026-05-02T09:45:33Z</time></trkpt><trkpt lat="45.694245337761615" lon="11.881176675425648"><ele>54.0</ele><time>2026-05-02T09:45:35Z</time></trkpt><trkpt lat="45.6942571907481" lon="11.881323497059972"><ele>54.0</ele><time>2026-05-02T09:45:37Z</time></trkpt><trkpt lat="45.694276956841435" lon="11.881482867427414"><ele>53.6</ele><time>2026-05-02T09:45:39Z</time></trkpt><trkpt lat="45.69429831724492" lon="11.881625378674299"><ele>53.2</ele><time>2026-05-02T09:45:41Z</time></trkpt><trkpt lat="45.69432973578118" lon="11.881756066105098"><ele>52.800000000000004</ele><time>2026-05-02T09:45:43Z</time></trkpt><trkpt lat="45.69435587992853" lon="11.881878466862938"><ele>52.400000000000006</ele><time>2026-05-02T09:45:45Z</time></trkpt><trkpt lat="45.69436126448516" lon="11.882007478824722"><ele>52.0</ele><time>2026-05-02T09:45:47Z</time></trkpt><trkpt lat="45.694361305042094" lon="11.882124727127978"><ele>52.0</ele><time>2026-05-02T09:45:49Z</time></trkpt><trkpt lat="45.69438087293981" lon="11.882223918727266"><ele>52.0</ele><time>2026-05-02T09:45:51Z</time></trkpt><trkpt lat="45.69440749286848" lon="11.882310890991977"><ele>52.0</ele><time>2026-05-02T09:45:53Z</time></trkpt><trkpt lat="45.69442634876547" lon="11.882408348833557"><ele>52.0</ele><time>2026-05-02T09:45:55Z</time></trkpt><trkpt lat="45.69444214837734" lon="11.88250625397769"><ele>52.0</ele><time>2026-05-02T09:45:57Z</time></trkpt><trkpt lat="45.69445606643252" lon="11.882599334507004"><ele>52.0</ele><time>2026-05-02T09:45:59Z</time></trkpt><trkpt lat="45.69448111777212" lon="11.882702193835634"><ele>52.0</ele><time>2026-05-02T09:46:01Z</time></trkpt><trkpt lat="45.6944976537452" lon="11.882834945241777"><ele>52.0</ele><time>2026-05-02T09:46:03Z</time></trkpt><trkpt lat="45.69452576971694" lon="11.882987346122722"><ele>52.0</ele><time>2026-05-02T09:46:05Z</time></trkpt><trkpt lat="45.69452684550077" lon="11.88314017697327"><ele>52.0</ele><time>2026-05-02T09:46:07Z</time></trkpt><trkpt lat="45.69452731019081" lon="11.883307572745746"><ele>52.0</ele><time>2026-05-02T09:46:09Z</time></trkpt><trkpt lat="45.69452445466534" lon="11.883476688940975"><ele>52.0</ele><time>2026-05-02T09:46:11Z</time></trkpt><trkpt lat="45.694525497006346" lon="11.88364936580994"><ele>52.0</ele><time>2026-05-02T09:46:13Z</time></trkpt><trkpt lat="45.69451997221764" lon="11.883820470257762"><ele>52.0</ele><time>2026-05-02T09:46:15Z</time></trkpt><trkpt lat="45.69452327832223" lon="11.883985550985479"><ele>52.0</ele><time>2026-05-02T09:46:17Z</time></trkpt><trkpt lat="45.69452312006267" lon="11.884148857050974"><ele>52.0</ele><time>2026-05-02T09:46:19Z</time></trkpt><trkpt lat="45.6945097598449" lon="11.884319212443287"><ele>52.0</ele><time>2026-05-02T09:46:21Z</time></trkpt><trkpt lat="45.694506178847696" lon="11.884487198159983"><ele>52.0</ele><time>2026-05-02T09:46:23.001Z</time></trkpt><trkpt lat="45.694495625773115" lon="11.88462875387587"><ele>52.0</ele><time>2026-05-02T09:46:25.001Z</time></trkpt><trkpt lat="45.69450108366367" lon="11.884779982968446"><ele>52.0</ele><time>2026-05-02T09:46:27.001Z</time></trkpt><trkpt lat="45.69450546440973" lon="11.884934729790505"><ele>52.0</ele><time>2026-05-02T09:46:29.001Z</time></trkpt><trkpt lat="45.69450868038593" lon="11.885094854789275"><ele>52.0</ele><time>2026-05-02T09:46:31.001Z</time></trkpt><trkpt lat="45.69452697255896" lon="11.885230405909102"><ele>52.0</ele><time>2026-05-02T09:46:33.001Z</time></trkpt><trkpt lat="45.694570793777174" lon="11.885362063755837"><ele>52.0</ele><time>2026-05-02T09:46:35.001Z</time></trkpt><trkpt lat="45.694625654585046" lon="11.88546674436121"><ele>52.0</ele><time>2026-05-02T09:46:37.001Z</time></trkpt><trkpt lat="45.69470022192946" lon="11.88555074285943"><ele>51.99999999999999</ele><time>2026-05-02T09:46:39.001Z</time></trkpt><trkpt lat="45.69474669801525" lon="11.885639900863575"><ele>52.0</ele><time>2026-05-02T09:46:41.001Z</time></trkpt><trkpt lat="45.6948071817131" lon="11.885724808304035"><ele>52.0</ele><time>2026-05-02T09:46:43.001Z</time></trkpt><trkpt lat="45.694850131928796" lon="11.885827445211326"><ele>52.0</ele><time>2026-05-02T09:46:45.001Z</time></trkpt><trkpt lat="45.69482775624275" lon="11.885972366855857"><ele>51.99999999999999</ele><time>2026-05-02T09:46:48.001Z</time></trkpt><trkpt lat="45.69480611735825" lon="11.886081796331897"><ele>52.0</ele><time>2026-05-02T09:46:50.001Z</time></trkpt><trkpt lat="45.69481176442207" lon="11.886196763815752"><ele>51.99999999999999</ele><time>2026-05-02T09:46:52.001Z</time></trkpt><trkpt lat="45.694887114835474" lon="11.886257450819036"><ele>52.0</ele><time>2026-05-02T09:46:54.001Z</time></trkpt><trkpt lat="45.69497506256047" lon="11.886290194954041"><ele>52.0</ele><time>2026-05-02T09:46:56.001Z</time></trkpt><trkpt lat="45.695052410603004" lon="11.886247468516801"><ele>52.0</ele><time>2026-05-02T09:46:58.001Z</time></trkpt><trkpt lat="45.69512522205356" lon="11.88621057397476"><ele>51.99999999999999</ele><time>2026-05-02T09:47:00.001Z</time></trkpt><trkpt lat="45.69519158641754" lon="11.886229348550833"><ele>52.0</ele><time>2026-05-02T09:47:02.001Z</time></trkpt><trkpt lat="45.69525452235491" lon="11.886253382477618"><ele>51.99999999999999</ele><time>2026-05-02T09:47:03.999Z</time></trkpt><trkpt lat="45.69533524999176" lon="11.886283289553546"><ele>52.0</ele><time>2026-05-02T09:47:05.999Z</time></trkpt><trkpt lat="45.69541618414585" lon="11.886299735692344"><ele>52.0</ele><time>2026-05-02T09:47:07.999Z</time></trkpt><trkpt lat="45.69548995294645" lon="11.886327742592181"><ele>52.0</ele><time>2026-05-02T09:47:09.999Z</time></trkpt><trkpt lat="45.69557379138885" lon="11.886360706748476"><ele>51.99999999999999</ele><time>2026-05-02T09:47:11.999Z</time></trkpt><trkpt lat="45.69566603073001" lon="11.886379008463434"><ele>52.0</ele><time>2026-05-02T09:47:13.999Z</time></trkpt><trkpt lat="45.695754423323656" lon="11.886412776597478"><ele>52.0</ele><time>2026-05-02T09:47:15.999Z</time></trkpt><trkpt lat="45.69584491211348" lon="11.886439058609318"><ele>52.0</ele><time>2026-05-02T09:47:17.999Z</time></trkpt><trkpt lat="45.69593074324183" lon="11.886455342465233"><ele>52.0</ele><time>2026-05-02T09:47:19.999Z</time></trkpt><trkpt lat="45.696032580246765" lon="11.886467938802"><ele>52.0</ele><time>2026-05-02T09:47:21.999Z</time></trkpt><trkpt lat="45.69612639112717" lon="11.886490719180866"><ele>52.0</ele><time>2026-05-02T09:47:23.999Z</time></trkpt><trkpt lat="45.696227175203326" lon="11.886484460104302"><ele>52.400000000000006</ele><time>2026-05-02T09:47:25.999Z</time></trkpt><trkpt lat="45.6963148278021" lon="11.88648931036452"><ele>52.800000000000004</ele><time>2026-05-02T09:47:27.999Z</time></trkpt><trkpt lat="45.696411045220174" lon="11.886481592374844"><ele>53.2</ele><time>2026-05-02T09:47:29.999Z</time></trkpt><trkpt lat="45.69651652176319" lon="11.886461596301226"><ele>53.6</ele><time>2026-05-02T09:47:31.999Z</time></trkpt><trkpt lat="45.69660373762911" lon="11.88643792290252"><ele>54.0</ele><time>2026-05-02T09:47:33.999Z</time></trkpt><trkpt lat="45.69668193840231" lon="11.886426591145643"><ele>54.0</ele><time>2026-05-02T09:47:35.999Z</time></trkpt><trkpt lat="45.69678286184347" lon="11.886384235893264"><ele>54.00000000000001</ele><time>2026-05-02T09:47:37.999Z</time></trkpt><trkpt lat="45.696877221152945" lon="11.886346257302467"><ele>54.00000000000001</ele><time>2026-05-02T09:47:40Z</time></trkpt><trkpt lat="45.69696501944426" lon="11.886300139526291"><ele>54.0</ele><time>2026-05-02T09:47:42Z</time></trkpt><trkpt lat="45.697059481420986" lon="11.886248433484967"><ele>54.0</ele><time>2026-05-02T09:47:44Z</time></trkpt><trkpt lat="45.697149468111" lon="11.886196026157272"><ele>53.800000000000004</ele><time>2026-05-02T09:47:46Z</time></trkpt><trkpt lat="45.69723484139561" lon="11.886146054426089"><ele>53.60000000000001</ele><time>2026-05-02T09:47:48Z</time></trkpt><trkpt lat="45.69733099936577" lon="11.886144432589855"><ele>53.4</ele><time>2026-05-02T09:47:50Z</time></trkpt><trkpt lat="45.69740203652116" lon="11.886249254845378"><ele>53.2</ele><time>2026-05-02T09:47:52Z</time></trkpt><trkpt lat="45.69741702864458" lon="11.886403865576153"><ele>53.0</ele><time>2026-05-02T09:47:54Z</time></trkpt><trkpt lat="45.697427061454796" lon="11.886555117772069"><ele>53.0</ele><time>2026-05-02T09:47:56Z</time></trkpt><trkpt lat="45.69745596246855" lon="11.886706617479616"><ele>53.0</ele><time>2026-05-02T09:47:58Z</time></trkpt><trkpt lat="45.697464355913084" lon="11.886803962356431"><ele>53.0</ele><time>2026-05-02T09:47:59Z</time></trkpt><trkpt lat="45.69748325441816" lon="11.886974758157832"><ele>53.0</ele><time>2026-05-02T09:48:01Z</time></trkpt><trkpt lat="45.69752074628824" lon="11.887140523508"><ele>53.0</ele><time>2026-05-02T09:48:03Z</time></trkpt><trkpt lat="45.69760334233119" lon="11.887258103016968"><ele>53.16666666666667</ele><time>2026-05-02T09:48:05Z</time></trkpt><trkpt lat="45.697666491740534" lon="11.88727825560493"><ele>53.333333333333336</ele><time>2026-05-02T09:48:06Z</time></trkpt><trkpt lat="45.697730609679326" lon="11.887276045528996"><ele>53.5</ele><time>2026-05-02T09:48:07Z</time></trkpt><trkpt lat="45.69779993198867" lon="11.887256199384545"><ele>53.66666666666667</ele><time>2026-05-02T09:48:08Z</time></trkpt><trkpt lat="45.69792515566594" lon="11.887267743506726"><ele>53.833333333333336</ele><time>2026-05-02T09:48:10Z</time></trkpt><trkpt lat="45.69798167708353" lon="11.887314904513236"><ele>54.0</ele><time>2026-05-02T09:48:11Z</time></trkpt><trkpt lat="45.698028075439474" lon="11.887379125466033"><ele>53.57142857142857</ele><time>2026-05-02T09:48:12Z</time></trkpt><trkpt lat="45.698067951529715" lon="11.887448938271564"><ele>53.14285714285714</ele><time>2026-05-02T09:48:13Z</time></trkpt><trkpt lat="45.6981102116294" lon="11.887518054560447"><ele>52.714285714285715</ele><time>2026-05-02T09:48:14Z</time></trkpt><trkpt lat="45.698158648465295" lon="11.887578430147508"><ele>52.285714285714285</ele><time>2026-05-02T09:48:15Z</time></trkpt><trkpt lat="45.698213582079646" lon="11.88762450728776"><ele>51.85714285714286</ele><time>2026-05-02T09:48:16Z</time></trkpt><trkpt lat="45.698272998133305" lon="11.887655690923278"><ele>51.42857142857143</ele><time>2026-05-02T09:48:17Z</time></trkpt><trkpt lat="45.69833596361758" lon="11.887675640046776"><ele>51.0</ele><time>2026-05-02T09:48:18Z</time></trkpt><trkpt lat="45.698404705396506" lon="11.887690876282836"><ele>51.0</ele><time>2026-05-02T09:48:19Z</time></trkpt><trkpt lat="45.698467982039666" lon="11.887699049067159"><ele>51.0</ele><time>2026-05-02T09:48:20Z</time></trkpt><trkpt lat="45.69853544311377" lon="11.887706687239657"><ele>51.0</ele><time>2026-05-02T09:48:21Z</time></trkpt><trkpt lat="45.69860210296682" lon="11.88771122955615"><ele>51.0</ele><time>2026-05-02T09:48:22Z</time></trkpt><trkpt lat="45.69866948232786" lon="11.887713868854929"><ele>51.0</ele><time>2026-05-02T09:48:23Z</time></trkpt><trkpt lat="45.69873717720116" lon="11.887708680788176"><ele>51.0</ele><time>2026-05-02T09:48:24Z</time></trkpt><trkpt lat="45.69880284117052" lon="11.887708564194899"><ele>51.0</ele><time>2026-05-02T09:48:25Z</time></trkpt><trkpt lat="45.698870639031014" lon="11.887704849747049"><ele>51.0</ele><time>2026-05-02T09:48:26Z</time></trkpt><trkpt lat="45.698939791790956" lon="11.887700689829911"><ele>51.0</ele><time>2026-05-02T09:48:27Z</time></trkpt><trkpt lat="45.69906819616342" lon="11.887685155578687"><ele>51.0</ele><time>2026-05-02T09:48:29Z</time></trkpt><trkpt lat="45.69919698881621" lon="11.887683088123145"><ele>51.0</ele><time>2026-05-02T09:48:31Z</time></trkpt><trkpt lat="45.699263259918844" lon="11.887677605848886"><ele>51.0</ele><time>2026-05-02T09:48:32Z</time></trkpt><trkpt lat="45.6993288695423" lon="11.887675701152745"><ele>51.0</ele><time>2026-05-02T09:48:33Z</time></trkpt><trkpt lat="45.69939716011884" lon="11.887676191947005"><ele>51.0</ele><time>2026-05-02T09:48:34Z</time></trkpt><trkpt lat="45.699461241430726" lon="11.887668554448153"><ele>51.0</ele><time>2026-05-02T09:48:35Z</time></trkpt><trkpt lat="45.69952875898365" lon="11.887659485137258"><ele>51.0</ele><time>2026-05-02T09:48:36Z</time></trkpt><trkpt lat="45.699660612825134" lon="11.887652656431012"><ele>51.0</ele><time>2026-05-02T09:48:38Z</time></trkpt><trkpt lat="45.69972911712664" lon="11.887647935680475"><ele>51.0</ele><time>2026-05-02T09:48:39Z</time></trkpt><trkpt lat="45.69979603957921" lon="11.88764291695098"><ele>51.0</ele><time>2026-05-02T09:48:40Z</time></trkpt><trkpt lat="45.69986186110355" lon="11.887641983980513"><ele>51.0</ele><time>2026-05-02T09:48:41.001Z</time></trkpt><trkpt lat="45.69992786764773" lon="11.887639607040697"><ele>51.0</ele><time>2026-05-02T09:48:42.001Z</time></trkpt><trkpt lat="45.700051421986416" lon="11.887632923394447"><ele>51.0</ele><time>2026-05-02T09:48:44.001Z</time></trkpt><trkpt lat="45.70011569691612" lon="11.88763318809902"><ele>51.0</ele><time>2026-05-02T09:48:45.001Z</time></trkpt><trkpt lat="45.700180793082744" lon="11.88763221382992"><ele>51.0</ele><time>2026-05-02T09:48:46.001Z</time></trkpt><trkpt lat="45.700249526727156" lon="11.887629102808823"><ele>51.0</ele><time>2026-05-02T09:48:47.001Z</time></trkpt><trkpt lat="45.70031588872315" lon="11.887627400425114"><ele>51.0</ele><time>2026-05-02T09:48:48.001Z</time></trkpt><trkpt lat="45.700380696870454" lon="11.88762369488734"><ele>51.0</ele><time>2026-05-02T09:48:49.001Z</time></trkpt><trkpt lat="45.70050766334304" lon="11.887620465717875"><ele>51.0</ele><time>2026-05-02T09:48:51.001Z</time></trkpt><trkpt lat="45.700627146121484" lon="11.887619537949606"><ele>51.0</ele><time>2026-05-02T09:48:53.001Z</time></trkpt><trkpt lat="45.70074744855543" lon="11.887613423301737"><ele>51.0</ele><time>2026-05-02T09:48:55.001Z</time></trkpt><trkpt lat="45.70086523879731" lon="11.887613069406994"><ele>51.0</ele><time>2026-05-02T09:48:57.001Z</time></trkpt><trkpt lat="45.70097730320714" lon="11.887607468536167"><ele>51.0</ele><time>2026-05-02T09:48:59.001Z</time></trkpt><trkpt lat="45.701095125847104" lon="11.887610716633901"><ele>51.0</ele><time>2026-05-02T09:49:01.001Z</time></trkpt><trkpt lat="45.70121045845658" lon="11.887615512046331"><ele>51.25</ele><time>2026-05-02T09:49:03.001Z</time></trkpt><trkpt lat="45.70133027851951" lon="11.887630630287415"><ele>51.5</ele><time>2026-05-02T09:49:05.001Z</time></trkpt><trkpt lat="45.701449640124935" lon="11.88765050901608"><ele>51.75</ele><time>2026-05-02T09:49:07.001Z</time></trkpt><trkpt lat="45.7015688500982" lon="11.88766880006202"><ele>52.0</ele><time>2026-05-02T09:49:08.998Z</time></trkpt><trkpt lat="45.70169016587714" lon="11.887687278900259"><ele>52.0</ele><time>2026-05-02T09:49:10.998Z</time></trkpt><trkpt lat="45.701753458263255" lon="11.887698162461069"><ele>52.0</ele><time>2026-05-02T09:49:11.998Z</time></trkpt><trkpt lat="45.70181607343988" lon="11.887708249816272"><ele>52.0</ele><time>2026-05-02T09:49:12.998Z</time></trkpt><trkpt lat="45.70193724194285" lon="11.887729330677683"><ele>52.0</ele><time>2026-05-02T09:49:14.998Z</time></trkpt><trkpt lat="45.70205822715765" lon="11.887750040035836"><ele>52.0</ele><time>2026-05-02T09:49:16.998Z</time></trkpt><trkpt lat="45.702175899912646" lon="11.887765976409371"><ele>52.0</ele><time>2026-05-02T09:49:18.998Z</time></trkpt><trkpt lat="45.70229515340726" lon="11.887781729994435"><ele>52.0</ele><time>2026-05-02T09:49:20.998Z</time></trkpt><trkpt lat="45.70235790248378" lon="11.887794061366586"><ele>52.0</ele><time>2026-05-02T09:49:21.998Z</time></trkpt><trkpt lat="45.7024645259669" lon="11.887809967395212"><ele>52.0</ele><time>2026-05-02T09:49:23.999Z</time></trkpt><trkpt lat="45.70258032020919" lon="11.887819796216426"><ele>52.0</ele><time>2026-05-02T09:49:25.999Z</time></trkpt><trkpt lat="45.70270639536962" lon="11.887818741948795"><ele>52.25</ele><time>2026-05-02T09:49:27.999Z</time></trkpt><trkpt lat="45.702830050380626" lon="11.887805811912301"><ele>52.5</ele><time>2026-05-02T09:49:29.999Z</time></trkpt><trkpt lat="45.702947409615724" lon="11.88777784159941"><ele>52.75</ele><time>2026-05-02T09:49:31.999Z</time></trkpt><trkpt lat="45.70306099389161" lon="11.887751408424752"><ele>53.0</ele><time>2026-05-02T09:49:33.999Z</time></trkpt><trkpt lat="45.703176218056825" lon="11.88770731462617"><ele>53.00000000000001</ele><time>2026-05-02T09:49:35.999Z</time></trkpt><trkpt lat="45.70329999221576" lon="11.887667267765378"><ele>53.0</ele><time>2026-05-02T09:49:37.999Z</time></trkpt><trkpt lat="45.703363422249765" lon="11.88764786455589"><ele>53.0</ele><time>2026-05-02T09:49:38.999Z</time></trkpt><trkpt lat="45.70342707638485" lon="11.887627426599803"><ele>53.0</ele><time>2026-05-02T09:49:39.999Z</time></trkpt><trkpt lat="45.703491499490546" lon="11.887603608051316"><ele>53.00000000000001</ele><time>2026-05-02T09:49:40.999Z</time></trkpt><trkpt lat="45.703552076164925" lon="11.887576232125706"><ele>53.0</ele><time>2026-05-02T09:49:41.999Z</time></trkpt><trkpt lat="45.70367048873816" lon="11.887531472475324"><ele>53.25</ele><time>2026-05-02T09:49:43.999Z</time></trkpt><trkpt lat="45.70378434931775" lon="11.887495626883902"><ele>53.5</ele><time>2026-05-02T09:49:46Z</time></trkpt><trkpt lat="45.703903501938534" lon="11.8874604940839"><ele>53.75</ele><time>2026-05-02T09:49:48Z</time></trkpt><trkpt lat="45.704022484893756" lon="11.88741809413593"><ele>54.0</ele><time>2026-05-02T09:49:50Z</time></trkpt><trkpt lat="45.704137121115224" lon="11.88738366924981"><ele>54.0</ele><time>2026-05-02T09:49:52Z</time></trkpt><trkpt lat="45.70425491765139" lon="11.887349741788778"><ele>54.00000000000001</ele><time>2026-05-02T09:49:54Z</time></trkpt><trkpt lat="45.70437350198969" lon="11.887307802676354"><ele>54.00000000000001</ele><time>2026-05-02T09:49:56Z</time></trkpt><trkpt lat="45.704497489433315" lon="11.887280004582436"><ele>54.0</ele><time>2026-05-02T09:49:58Z</time></trkpt><trkpt lat="45.70456068667952" lon="11.887265008142297"><ele>54.0</ele><time>2026-05-02T09:49:59Z</time></trkpt><trkpt lat="45.70462325787999" lon="11.887251275500455"><ele>54.0</ele><time>2026-05-02T09:50:00Z</time></trkpt><trkpt lat="45.70468633394036" lon="11.887236104810684"><ele>54.00000000000001</ele><time>2026-05-02T09:50:01Z</time></trkpt><trkpt lat="45.704809137349194" lon="11.88720689117318"><ele>54.00000000000001</ele><time>2026-05-02T09:50:03Z</time></trkpt><trkpt lat="45.704930195932775" lon="11.887178159092445"><ele>54.0</ele><time>2026-05-02T09:50:05Z</time></trkpt><trkpt lat="45.70505060407686" lon="11.887150658015656"><ele>54.0</ele><time>2026-05-02T09:50:07Z</time></trkpt><trkpt lat="45.70511435313029" lon="11.887138451443716"><ele>54.0</ele><time>2026-05-02T09:50:08Z</time></trkpt><trkpt lat="45.7052392111121" lon="11.887108817124222"><ele>54.0</ele><time>2026-05-02T09:50:10Z</time></trkpt><trkpt lat="45.70536264692179" lon="11.887078941007523"><ele>54.0</ele><time>2026-05-02T09:50:12Z</time></trkpt><trkpt lat="45.70547952588129" lon="11.887051979589947"><ele>54.0</ele><time>2026-05-02T09:50:14Z</time></trkpt><trkpt lat="45.705592545258924" lon="11.88702377172507"><ele>53.75</ele><time>2026-05-02T09:50:16Z</time></trkpt><trkpt lat="45.7057114263272" lon="11.88699598987423"><ele>53.5</ele><time>2026-05-02T09:50:18Z</time></trkpt><trkpt lat="45.705827396789914" lon="11.886967381356328"><ele>53.25</ele><time>2026-05-02T09:50:20Z</time></trkpt><trkpt lat="45.705940458773625" lon="11.886945361014584"><ele>53.0</ele><time>2026-05-02T09:50:22Z</time></trkpt><trkpt lat="45.706052230097896" lon="11.886922588314814"><ele>53.25</ele><time>2026-05-02T09:50:24Z</time></trkpt><trkpt lat="45.70616253012787" lon="11.886901764030094"><ele>53.5</ele><time>2026-05-02T09:50:26Z</time></trkpt><trkpt lat="45.7062781642897" lon="11.886877014548872"><ele>53.75</ele><time>2026-05-02T09:50:28.001Z</time></trkpt><trkpt lat="45.70639291982469" lon="11.886850602730194"><ele>54.0</ele><time>2026-05-02T09:50:30.001Z</time></trkpt><trkpt lat="45.70650707428105" lon="11.886823662309801"><ele>54.0</ele><time>2026-05-02T09:50:32.001Z</time></trkpt><trkpt lat="45.70661740752897" lon="11.886795431776036"><ele>54.0</ele><time>2026-05-02T09:50:34.001Z</time></trkpt><trkpt lat="45.7067293835188" lon="11.886765149482446"><ele>54.0</ele><time>2026-05-02T09:50:36.001Z</time></trkpt><trkpt lat="45.70684093908717" lon="11.886739018257314"><ele>54.0</ele><time>2026-05-02T09:50:38.001Z</time></trkpt><trkpt lat="45.70695806749591" lon="11.88671320678978"><ele>54.0</ele><time>2026-05-02T09:50:40.001Z</time></trkpt><trkpt lat="45.707021615385834" lon="11.886695386484162"><ele>54.00000000000001</ele><time>2026-05-02T09:50:41.001Z</time></trkpt><trkpt lat="45.70713740206719" lon="11.886670188226859"><ele>54.00000000000001</ele><time>2026-05-02T09:50:43.001Z</time></trkpt><trkpt lat="45.707251572689245" lon="11.886646086501969"><ele>54.0</ele><time>2026-05-02T09:50:45.001Z</time></trkpt><trkpt lat="45.7073645030152" lon="11.886615984751083"><ele>54.0</ele><time>2026-05-02T09:50:47.001Z</time></trkpt><trkpt lat="45.70747505021249" lon="11.886595009252211"><ele>54.0</ele><time>2026-05-02T09:50:49.001Z</time></trkpt><trkpt lat="45.707591842036564" lon="11.886571457184735"><ele>54.00000000000001</ele><time>2026-05-02T09:50:51.001Z</time></trkpt><trkpt lat="45.70770961571949" lon="11.886546525805322"><ele>54.00000000000001</ele><time>2026-05-02T09:50:53.001Z</time></trkpt><trkpt lat="45.70783177124918" lon="11.88651874070519"><ele>54.0</ele><time>2026-05-02T09:50:55.001Z</time></trkpt><trkpt lat="45.70789454602459" lon="11.886503284724816"><ele>54.0</ele><time>2026-05-02T09:50:56.001Z</time></trkpt><trkpt lat="45.70801346814222" lon="11.886470251442692"><ele>54.25</ele><time>2026-05-02T09:50:58.001Z</time></trkpt><trkpt lat="45.70813083762876" lon="11.886431146459477"><ele>54.5</ele><time>2026-05-02T09:51:00.001Z</time></trkpt><trkpt lat="45.70825214718307" lon="11.886395746790866"><ele>54.75</ele><time>2026-05-02T09:51:02.001Z</time></trkpt><trkpt lat="45.7083704918681" lon="11.886352250330166"><ele>55.0</ele><time>2026-05-02T09:51:04.001Z</time></trkpt><trkpt lat="45.70848443182472" lon="11.886303540216067"><ele>55.0</ele><time>2026-05-02T09:51:06.001Z</time></trkpt><trkpt lat="45.708595370918566" lon="11.886252409024335"><ele>55.0</ele><time>2026-05-02T09:51:08.001Z</time></trkpt><trkpt lat="45.708705519804234" lon="11.886197281460317"><ele>55.0</ele><time>2026-05-02T09:51:10.001Z</time></trkpt><trkpt lat="45.70882097172146" lon="11.886140519228567"><ele>55.0</ele><time>2026-05-02T09:51:12.001Z</time></trkpt><trkpt lat="45.708932681881016" lon="11.886078023898964"><ele>55.0</ele><time>2026-05-02T09:51:14.001Z</time></trkpt><trkpt lat="45.70904638258106" lon="11.886012722231984"><ele>55.0</ele><time>2026-05-02T09:51:15.998Z</time></trkpt><trkpt lat="45.70915094283525" lon="11.885931496707311"><ele>55.0</ele><time>2026-05-02T09:51:17.998Z</time></trkpt><trkpt lat="45.70924856040521" lon="11.885839292767917"><ele>55.0</ele><time>2026-05-02T09:51:19.998Z</time></trkpt><trkpt lat="45.70934791488408" lon="11.885752087208232"><ele>54.75</ele><time>2026-05-02T09:51:21.998Z</time></trkpt><trkpt lat="45.70944905699726" lon="11.885662195164693"><ele>54.5</ele><time>2026-05-02T09:51:23.998Z</time></trkpt><trkpt lat="45.70954858344185" lon="11.885575211026344"><ele>54.25</ele><time>2026-05-02T09:51:25.999Z</time></trkpt><trkpt lat="45.709650185895356" lon="11.885485585974491"><ele>54.0</ele><time>2026-05-02T09:51:27.999Z</time></trkpt><trkpt lat="45.709752772357625" lon="11.885401112930245"><ele>54.0</ele><time>2026-05-02T09:51:29.999Z</time></trkpt><trkpt lat="45.70985706772743" lon="11.885324735986597"><ele>54.0</ele><time>2026-05-02T09:51:31.999Z</time></trkpt><trkpt lat="45.7099625641037" lon="11.885255669234303"><ele>54.0</ele><time>2026-05-02T09:51:33.999Z</time></trkpt><trkpt lat="45.710074517545486" lon="11.885198794867613"><ele>54.0</ele><time>2026-05-02T09:51:35.999Z</time></trkpt><trkpt lat="45.71018826672174" lon="11.88515133333908"><ele>54.5</ele><time>2026-05-02T09:51:37.999Z</time></trkpt><trkpt lat="45.71030416491162" lon="11.885107287938204"><ele>55.0</ele><time>2026-05-02T09:51:39.999Z</time></trkpt><trkpt lat="45.71041902692865" lon="11.88506823504085"><ele>55.5</ele><time>2026-05-02T09:51:41.999Z</time></trkpt><trkpt lat="45.71053234206597" lon="11.885034279950442"><ele>56.0</ele><time>2026-05-02T09:51:43.999Z</time></trkpt><trkpt lat="45.710643772619036" lon="11.885007278389184"><ele>56.0</ele><time>2026-05-02T09:51:45.999Z</time></trkpt><trkpt lat="45.71075375163113" lon="11.88496664096698"><ele>55.99999999999999</ele><time>2026-05-02T09:51:48Z</time></trkpt><trkpt lat="45.710858835984894" lon="11.884932201031638"><ele>55.99999999999999</ele><time>2026-05-02T09:51:50Z</time></trkpt><trkpt lat="45.7109602928646" lon="11.884903784837347"><ele>56.0</ele><time>2026-05-02T09:51:52Z</time></trkpt><trkpt lat="45.71106981008499" lon="11.884883607040264"><ele>56.0</ele><time>2026-05-02T09:51:54Z</time></trkpt><trkpt lat="45.71118247126888" lon="11.884844283338351"><ele>56.0</ele><time>2026-05-02T09:51:56Z</time></trkpt><trkpt lat="45.71129743686497" lon="11.88481078172403"><ele>56.0</ele><time>2026-05-02T09:51:58Z</time></trkpt><trkpt lat="45.711411966298634" lon="11.884777131029422"><ele>56.0</ele><time>2026-05-02T09:52:00Z</time></trkpt><trkpt lat="45.71152489060091" lon="11.884740180841618"><ele>56.0</ele><time>2026-05-02T09:52:02Z</time></trkpt><trkpt lat="45.71163751822723" lon="11.884708073215329"><ele>56.0</ele><time>2026-05-02T09:52:04Z</time></trkpt><trkpt lat="45.71174896299134" lon="11.884673278515422"><ele>55.99999999999999</ele><time>2026-05-02T09:52:06Z</time></trkpt><trkpt lat="45.71185506523175" lon="11.884639407307498"><ele>55.99999999999999</ele><time>2026-05-02T09:52:08Z</time></trkpt><trkpt lat="45.711960858037166" lon="11.88460999529922"><ele>56.0</ele><time>2026-05-02T09:52:10Z</time></trkpt><trkpt lat="45.712060679131" lon="11.884577193640975"><ele>56.0</ele><time>2026-05-02T09:52:12Z</time></trkpt><trkpt lat="45.71216616560007" lon="11.884545853500663"><ele>56.0</ele><time>2026-05-02T09:52:14Z</time></trkpt><trkpt lat="45.712275790421884" lon="11.884514428306957"><ele>56.0</ele><time>2026-05-02T09:52:16Z</time></trkpt><trkpt lat="45.71238795273229" lon="11.884480075370945"><ele>56.0</ele><time>2026-05-02T09:52:18Z</time></trkpt><trkpt lat="45.712498788701296" lon="11.884447532008068"><ele>56.0</ele><time>2026-05-02T09:52:20Z</time></trkpt><trkpt lat="45.71260882382768" lon="11.884417269268864"><ele>56.0</ele><time>2026-05-02T09:52:22.001Z</time></trkpt><trkpt lat="45.7127204299047" lon="11.884382768881014"><ele>55.99999999999999</ele><time>2026-05-02T09:52:24.001Z</time></trkpt><trkpt lat="45.71283119881114" lon="11.88435052652041"><ele>55.99999999999999</ele><time>2026-05-02T09:52:26.001Z</time></trkpt><trkpt lat="45.712937951228355" lon="11.884318530862995"><ele>56.0</ele><time>2026-05-02T09:52:28.001Z</time></trkpt><trkpt lat="45.71303859182216" lon="11.884285556673452"><ele>56.0</ele><time>2026-05-02T09:52:30.001Z</time></trkpt><trkpt lat="45.7131414025741" lon="11.88426050191986"><ele>56.199999999999996</ele><time>2026-05-02T09:52:32.001Z</time></trkpt><trkpt lat="45.71323554550831" lon="11.884231320294642"><ele>56.39999999999999</ele><time>2026-05-02T09:52:34.001Z</time></trkpt><trkpt lat="45.71332821898938" lon="11.884203247279167"><ele>56.6</ele><time>2026-05-02T09:52:36.001Z</time></trkpt><trkpt lat="45.71342063316672" lon="11.884173780213468"><ele>56.8</ele><time>2026-05-02T09:52:38.001Z</time></trkpt><trkpt lat="45.71350901269589" lon="11.884146552416064"><ele>57.0</ele><time>2026-05-02T09:52:40.001Z</time></trkpt><trkpt lat="45.71359724410766" lon="11.884122624960469"><ele>57.2</ele><time>2026-05-02T09:52:42.001Z</time></trkpt><trkpt lat="45.713695175980746" lon="11.884090085580356"><ele>57.400000000000006</ele><time>2026-05-02T09:52:44.001Z</time></trkpt><trkpt lat="45.71380541523935" lon="11.884055355618152"><ele>57.599999999999994</ele><time>2026-05-02T09:52:46.001Z</time></trkpt><trkpt lat="45.7139216953056" lon="11.884017453308163"><ele>57.8</ele><time>2026-05-02T09:52:48.001Z</time></trkpt><trkpt lat="45.71403471695177" lon="11.883988110719779"><ele>58.0</ele><time>2026-05-02T09:52:50.001Z</time></trkpt><trkpt lat="45.71414846016441" lon="11.88395952327813"><ele>58.0</ele><time>2026-05-02T09:52:52.001Z</time></trkpt><trkpt lat="45.71426233492192" lon="11.88392108344132"><ele>58.0</ele><time>2026-05-02T09:52:54.001Z</time></trkpt><trkpt lat="45.714376647514264" lon="11.883895271063972"><ele>58.0</ele><time>2026-05-02T09:52:56.001Z</time></trkpt><trkpt lat="45.71448896064715" lon="11.883858622250324"><ele>58.0</ele><time>2026-05-02T09:52:58.001Z</time></trkpt><trkpt lat="45.71460292430134" lon="11.88382421441819"><ele>58.0</ele><time>2026-05-02T09:53:00.001Z</time></trkpt><trkpt lat="45.71472119450309" lon="11.883787962898245"><ele>58.0</ele><time>2026-05-02T09:53:02.001Z</time></trkpt><trkpt lat="45.714839161032394" lon="11.883756420197683"><ele>58.0</ele><time>2026-05-02T09:53:04.002Z</time></trkpt><trkpt lat="45.714955006481865" lon="11.88372099206823"><ele>58.0</ele><time>2026-05-02T09:53:06.002Z</time></trkpt><trkpt lat="45.71506934802171" lon="11.88368711659823"><ele>58.0</ele><time>2026-05-02T09:53:08.002Z</time></trkpt><trkpt lat="45.715183176672475" lon="11.883648355640926"><ele>58.0</ele><time>2026-05-02T09:53:10.002Z</time></trkpt><trkpt lat="45.715296967710465" lon="11.883621224403083"><ele>58.0</ele><time>2026-05-02T09:53:12.002Z</time></trkpt><trkpt lat="45.71540820618283" lon="11.883579945676905"><ele>58.0</ele><time>2026-05-02T09:53:14.002Z</time></trkpt><trkpt lat="45.71552558816276" lon="11.88354782694113"><ele>57.75</ele><time>2026-05-02T09:53:16.002Z</time></trkpt><trkpt lat="45.71563932507768" lon="11.883515170989266"><ele>57.5</ele><time>2026-05-02T09:53:18.002Z</time></trkpt><trkpt lat="45.71575260240653" lon="11.883481683985389"><ele>57.25</ele><time>2026-05-02T09:53:20.002Z</time></trkpt><trkpt lat="45.71586650758096" lon="11.883444918591495"><ele>57.0</ele><time>2026-05-02T09:53:21.998Z</time></trkpt><trkpt lat="45.71597516318529" lon="11.88340524397726"><ele>57.400000000000006</ele><time>2026-05-02T09:53:23.998Z</time></trkpt><trkpt lat="45.716090335102294" lon="11.883370090363478"><ele>57.800000000000004</ele><time>2026-05-02T09:53:25.998Z</time></trkpt><trkpt lat="45.716204080114494" lon="11.88333313436704"><ele>58.2</ele><time>2026-05-02T09:53:27.998Z</time></trkpt><trkpt lat="45.716304942522065" lon="11.883302389890028"><ele>58.6</ele><time>2026-05-02T09:53:29.998Z</time></trkpt><trkpt lat="45.716410381214764" lon="11.883273786478224"><ele>59.0</ele><time>2026-05-02T09:53:31.999Z</time></trkpt><trkpt lat="45.716514699858685" lon="11.883239492269112"><ele>59.0</ele><time>2026-05-02T09:53:33.999Z</time></trkpt><trkpt lat="45.716610091347945" lon="11.883220236075974"><ele>59.00000000000001</ele><time>2026-05-02T09:53:35.999Z</time></trkpt><trkpt lat="45.71670392898352" lon="11.883184947333334"><ele>59.00000000000001</ele><time>2026-05-02T09:53:37.999Z</time></trkpt><trkpt lat="45.71680550066206" lon="11.883165474545052"><ele>59.0</ele><time>2026-05-02T09:53:39.999Z</time></trkpt><trkpt lat="45.71690734935317" lon="11.883132921210189"><ele>59.0</ele><time>2026-05-02T09:53:41.999Z</time></trkpt><trkpt lat="45.71701169786602" lon="11.883104873479974"><ele>59.0</ele><time>2026-05-02T09:53:43.999Z</time></trkpt><trkpt lat="45.71711843694277" lon="11.88307095025248"><ele>59.0</ele><time>2026-05-02T09:53:45.999Z</time></trkpt><trkpt lat="45.7172307895038" lon="11.883042263858817"><ele>59.0</ele><time>2026-05-02T09:53:47.999Z</time></trkpt><trkpt lat="45.7173438385506" lon="11.883015977133763"><ele>59.0</ele><time>2026-05-02T09:53:49.999Z</time></trkpt><trkpt lat="45.717460334287765" lon="11.883002369959714"><ele>59.0</ele><time>2026-05-02T09:53:52Z</time></trkpt><trkpt lat="45.71752322905002" lon="11.882997840510464"><ele>59.00000000000001</ele><time>2026-05-02T09:53:53Z</time></trkpt><trkpt lat="45.7176285613539" lon="11.88300834939434"><ele>59.00000000000001</ele><time>2026-05-02T09:53:55Z</time></trkpt><trkpt lat="45.71774703477359" lon="11.883011502047122"><ele>59.0</ele><time>2026-05-02T09:53:57Z</time></trkpt><trkpt lat="45.71785383575093" lon="11.883008273824847"><ele>59.0</ele><time>2026-05-02T09:53:59Z</time></trkpt><trkpt lat="45.71795925595515" lon="11.883014470711352"><ele>59.25</ele><time>2026-05-02T09:54:01Z</time></trkpt><trkpt lat="45.718074445443996" lon="11.883023871534046"><ele>59.5</ele><time>2026-05-02T09:54:03Z</time></trkpt><trkpt lat="45.718197805961246" lon="11.88303901694243"><ele>59.75</ele><time>2026-05-02T09:54:05Z</time></trkpt><trkpt lat="45.71831394024639" lon="11.883017573526375"><ele>60.0</ele><time>2026-05-02T09:54:07Z</time></trkpt><trkpt lat="45.71842592125438" lon="11.883012450705124"><ele>60.0</ele><time>2026-05-02T09:54:09Z</time></trkpt><trkpt lat="45.7185420375081" lon="11.883001407942585"><ele>60.0</ele><time>2026-05-02T09:54:11Z</time></trkpt><trkpt lat="45.71865328780963" lon="11.882991767960604"><ele>60.0</ele><time>2026-05-02T09:54:13Z</time></trkpt><trkpt lat="45.71875558042845" lon="11.882979702320169"><ele>60.0</ele><time>2026-05-02T09:54:15Z</time></trkpt><trkpt lat="45.71885109259822" lon="11.882972636282384"><ele>60.0</ele><time>2026-05-02T09:54:17Z</time></trkpt><trkpt lat="45.718911334314136" lon="11.883030457760718"><ele>60.0</ele><time>2026-05-02T09:54:19.001Z</time></trkpt><trkpt lat="45.71892773791362" lon="11.883165019514385"><ele>60.0</ele><time>2026-05-02T09:54:21.001Z</time></trkpt><trkpt lat="45.71893149180128" lon="11.883294887764354"><ele>60.0</ele><time>2026-05-02T09:54:23.001Z</time></trkpt><trkpt lat="45.71893988184415" lon="11.883432612615676"><ele>60.0</ele><time>2026-05-02T09:54:25.001Z</time></trkpt><trkpt lat="45.71895713719437" lon="11.883586449912498"><ele>60.0</ele><time>2026-05-02T09:54:27.001Z</time></trkpt><trkpt lat="45.71896613027977" lon="11.883757945375446"><ele>60.0</ele><time>2026-05-02T09:54:29.001Z</time></trkpt><trkpt lat="45.718970570857834" lon="11.883848308380951"><ele>60.0</ele><time>2026-05-02T09:54:30.001Z</time></trkpt><trkpt lat="45.71898107717373" lon="11.88401972612503"><ele>60.0</ele><time>2026-05-02T09:54:32.001Z</time></trkpt><trkpt lat="45.71898999145136" lon="11.88411858422844"><ele>60.0</ele><time>2026-05-02T09:54:34.001Z</time></trkpt><trkpt lat="45.719134572072676" lon="11.884073420161064"><ele>60.0</ele><time>2026-05-02T09:54:35.001Z</time></trkpt><trkpt lat="45.71924651810167" lon="11.884045910902504"><ele>60.0</ele><time>2026-05-02T09:54:37.001Z</time></trkpt><trkpt lat="45.719359817789396" lon="11.88403403371908"><ele>60.0</ele><time>2026-05-02T09:54:39.001Z</time></trkpt><trkpt lat="45.71947322523384" lon="11.884021407720919"><ele>60.0</ele><time>2026-05-02T09:54:41.001Z</time></trkpt><trkpt lat="45.71958359544916" lon="11.883999523325047"><ele>60.0</ele><time>2026-05-02T09:54:43.001Z</time></trkpt><trkpt lat="45.7196988535868" lon="11.883980264086706"><ele>60.0</ele><time>2026-05-02T09:54:45.001Z</time></trkpt><trkpt lat="45.71981296503919" lon="11.883965212375664"><ele>60.0</ele><time>2026-05-02T09:54:47.001Z</time></trkpt><trkpt lat="45.719925198805925" lon="11.883949178086928"><ele>60.0</ele><time>2026-05-02T09:54:49.001Z</time></trkpt><trkpt lat="45.72003266139675" lon="11.883932653929936"><ele>60.0</ele><time>2026-05-02T09:54:51.001Z</time></trkpt><trkpt lat="45.72014104122847" lon="11.883913822620329"><ele>60.0</ele><time>2026-05-02T09:54:53.002Z</time></trkpt><trkpt lat="45.72025437455859" lon="11.883898827395871"><ele>60.0</ele><time>2026-05-02T09:54:55.002Z</time></trkpt><trkpt lat="45.720367492386735" lon="11.883887248121686"><ele>60.0</ele><time>2026-05-02T09:54:57.002Z</time></trkpt><trkpt lat="45.72048428311367" lon="11.883874212912561"><ele>60.0</ele><time>2026-05-02T09:54:59.002Z</time></trkpt><trkpt lat="45.72061025272233" lon="11.883854900161552"><ele>60.0</ele><time>2026-05-02T09:55:01.002Z</time></trkpt><trkpt lat="45.72073180978745" lon="11.883836191493645"><ele>60.0</ele><time>2026-05-02T09:55:03.002Z</time></trkpt><trkpt lat="45.72084658402189" lon="11.883820949718043"><ele>60.0</ele><time>2026-05-02T09:55:05.002Z</time></trkpt><trkpt lat="45.72095927602586" lon="11.883805536297062"><ele>60.0</ele><time>2026-05-02T09:55:07.002Z</time></trkpt><trkpt lat="45.72106841739462" lon="11.883787532703517"><ele>60.0</ele><time>2026-05-02T09:55:09.002Z</time></trkpt><trkpt lat="45.721175141743025" lon="11.883776537950826"><ele>60.0</ele><time>2026-05-02T09:55:11.002Z</time></trkpt><trkpt lat="45.72128288048645" lon="11.883749340038626"><ele>60.2</ele><time>2026-05-02T09:55:13.002Z</time></trkpt><trkpt lat="45.721382543693785" lon="11.88374939602145"><ele>60.4</ele><time>2026-05-02T09:55:15.002Z</time></trkpt><trkpt lat="45.721486754516924" lon="11.883734436738346"><ele>60.599999999999994</ele><time>2026-05-02T09:55:17.002Z</time></trkpt><trkpt lat="45.721591159798336" lon="11.883726034644837"><ele>60.8</ele><time>2026-05-02T09:55:19.002Z</time></trkpt><trkpt lat="45.721697598324646" lon="11.88369892624153"><ele>61.0</ele><time>2026-05-02T09:55:21.002Z</time></trkpt><trkpt lat="45.72180789024863" lon="11.883676993309647"><ele>60.599999999999994</ele><time>2026-05-02T09:55:23.002Z</time></trkpt><trkpt lat="45.72192107772035" lon="11.883660644090913"><ele>60.199999999999996</ele><time>2026-05-02T09:55:25.002Z</time></trkpt><trkpt lat="45.72202961102915" lon="11.883651816820347"><ele>59.800000000000004</ele><time>2026-05-02T09:55:26.998Z</time></trkpt><trkpt lat="45.72214095965015" lon="11.883628561916256"><ele>59.400000000000006</ele><time>2026-05-02T09:55:28.998Z</time></trkpt><trkpt lat="45.722251700492215" lon="11.883612228303528"><ele>59.0</ele><time>2026-05-02T09:55:30.998Z</time></trkpt><trkpt lat="45.722357406007674" lon="11.883595975606315"><ele>59.0</ele><time>2026-05-02T09:55:32.998Z</time></trkpt><trkpt lat="45.722469873803426" lon="11.883597106089294"><ele>59.0</ele><time>2026-05-02T09:55:34.998Z</time></trkpt><trkpt lat="45.722581695094604" lon="11.88358289708771"><ele>59.0</ele><time>2026-05-02T09:55:36.998Z</time></trkpt><trkpt lat="45.72269344222174" lon="11.883566075681543"><ele>59.0</ele><time>2026-05-02T09:55:38.998Z</time></trkpt><trkpt lat="45.72280636851436" lon="11.88355213809318"><ele>59.400000000000006</ele><time>2026-05-02T09:55:40.999Z</time></trkpt><trkpt lat="45.722918558254264" lon="11.883536656304813"><ele>59.800000000000004</ele><time>2026-05-02T09:55:42.999Z</time></trkpt><trkpt lat="45.72302942698172" lon="11.883520383197403"><ele>60.199999999999996</ele><time>2026-05-02T09:55:44.999Z</time></trkpt><trkpt lat="45.723124628998725" lon="11.883509651299274"><ele>60.599999999999994</ele><time>2026-05-02T09:55:46.999Z</time></trkpt><trkpt lat="45.72322554989759" lon="11.883497630281003"><ele>61.0</ele><time>2026-05-02T09:55:48.999Z</time></trkpt><trkpt lat="45.723316685178496" lon="11.883494152088586"><ele>61.0</ele><time>2026-05-02T09:55:50.999Z</time></trkpt><trkpt lat="45.72340903693016" lon="11.883497038310326"><ele>60.99999999999999</ele><time>2026-05-02T09:55:52.999Z</time></trkpt><trkpt lat="45.72351297818525" lon="11.883493171202073"><ele>60.99999999999999</ele><time>2026-05-02T09:55:54.999Z</time></trkpt><trkpt lat="45.72361827076502" lon="11.88350216464035"><ele>61.0</ele><time>2026-05-02T09:55:57Z</time></trkpt><trkpt lat="45.72372821829399" lon="11.883505292889684"><ele>61.0</ele><time>2026-05-02T09:55:59Z</time></trkpt><trkpt lat="45.723837545672836" lon="11.883528443721069"><ele>61.25</ele><time>2026-05-02T09:56:01Z</time></trkpt><trkpt lat="45.72394634452594" lon="11.88354630631203"><ele>61.5</ele><time>2026-05-02T09:56:03Z</time></trkpt><trkpt lat="45.724068057053756" lon="11.88355996271675"><ele>61.75</ele><time>2026-05-02T09:56:05Z</time></trkpt><trkpt lat="45.724186497856536" lon="11.883570551659426"><ele>62.0</ele><time>2026-05-02T09:56:07Z</time></trkpt><trkpt lat="45.72430266453485" lon="11.88357873592219"><ele>62.0</ele><time>2026-05-02T09:56:09Z</time></trkpt><trkpt lat="45.72441751450396" lon="11.883582608241845"><ele>62.0</ele><time>2026-05-02T09:56:11Z</time></trkpt><trkpt lat="45.724527257089" lon="11.88358187424808"><ele>62.0</ele><time>2026-05-02T09:56:13Z</time></trkpt><trkpt lat="45.72463136139202" lon="11.883578317617987"><ele>62.0</ele><time>2026-05-02T09:56:15Z</time></trkpt><trkpt lat="45.72472270424445" lon="11.883579284343426"><ele>62.0</ele><time>2026-05-02T09:56:17Z</time></trkpt><trkpt lat="45.724833824876974" lon="11.883561317813585"><ele>62.0</ele><time>2026-05-02T09:56:19Z</time></trkpt><trkpt lat="45.72494699137988" lon="11.883555171365106"><ele>62.0</ele><time>2026-05-02T09:56:21Z</time></trkpt><trkpt lat="45.72505982870307" lon="11.883541393205533"><ele>62.0</ele><time>2026-05-02T09:56:23.001Z</time></trkpt><trkpt lat="45.72517347994581" lon="11.883534733984602"><ele>62.0</ele><time>2026-05-02T09:56:25.001Z</time></trkpt><trkpt lat="45.72529059591483" lon="11.883521505166307"><ele>62.5</ele><time>2026-05-02T09:56:27.001Z</time></trkpt><trkpt lat="45.72540726723533" lon="11.88350946336546"><ele>63.0</ele><time>2026-05-02T09:56:29.001Z</time></trkpt><trkpt lat="45.72552428399187" lon="11.883491802610612"><ele>63.5</ele><time>2026-05-02T09:56:31.001Z</time></trkpt><trkpt lat="45.72563804752148" lon="11.883464269384241"><ele>64.0</ele><time>2026-05-02T09:56:33.001Z</time></trkpt><trkpt lat="45.7257518075085" lon="11.883436913031808"><ele>63.25</ele><time>2026-05-02T09:56:35.001Z</time></trkpt><trkpt lat="45.72586200058211" lon="11.883400744757548"><ele>62.5</ele><time>2026-05-02T09:56:37.001Z</time></trkpt><trkpt lat="45.7259714317891" lon="11.883361971451198"><ele>61.75</ele><time>2026-05-02T09:56:39.001Z</time></trkpt><trkpt lat="45.72608374217872" lon="11.88333018577875"><ele>61.0</ele><time>2026-05-02T09:56:41.001Z</time></trkpt><trkpt lat="45.726194728526075" lon="11.883288125380684"><ele>61.0</ele><time>2026-05-02T09:56:43.001Z</time></trkpt><trkpt lat="45.72630944944434" lon="11.883254155518847"><ele>61.0</ele><time>2026-05-02T09:56:45.001Z</time></trkpt><trkpt lat="45.72642452822138" lon="11.883216999714769"><ele>61.0</ele><time>2026-05-02T09:56:47.001Z</time></trkpt><trkpt lat="45.72653832798592" lon="11.883177309237684"><ele>61.0</ele><time>2026-05-02T09:56:49.001Z</time></trkpt><trkpt lat="45.72664575396738" lon="11.883134021677675"><ele>61.0</ele><time>2026-05-02T09:56:51.001Z</time></trkpt><trkpt lat="45.72676120374381" lon="11.883116009124887"><ele>61.0</ele><time>2026-05-02T09:56:53.001Z</time></trkpt><trkpt lat="45.726872979106325" lon="11.88308333996529"><ele>61.0</ele><time>2026-05-02T09:56:55.002Z</time></trkpt><trkpt lat="45.7269833431916" lon="11.883043542917932"><ele>61.0</ele><time>2026-05-02T09:56:57.002Z</time></trkpt><trkpt lat="45.727093033382914" lon="11.883003555264503"><ele>61.5</ele><time>2026-05-02T09:56:59.002Z</time></trkpt><trkpt lat="45.72720469865713" lon="11.882968771883013"><ele>62.0</ele><time>2026-05-02T09:57:01.002Z</time></trkpt><trkpt lat="45.72731763288655" lon="11.882931535335683"><ele>62.5</ele><time>2026-05-02T09:57:03.002Z</time></trkpt><trkpt lat="45.72742620025044" lon="11.882897679087076"><ele>63.0</ele><time>2026-05-02T09:57:05.002Z</time></trkpt><trkpt lat="45.727539027418075" lon="11.882866397929734"><ele>63.0</ele><time>2026-05-02T09:57:07.002Z</time></trkpt><trkpt lat="45.727650258075286" lon="11.882834846054413"><ele>63.0</ele><time>2026-05-02T09:57:09.002Z</time></trkpt><trkpt lat="45.727762321869285" lon="11.882811729259862"><ele>63.0</ele><time>2026-05-02T09:57:11.002Z</time></trkpt><trkpt lat="45.72787492335116" lon="11.882786121643603"><ele>63.0</ele><time>2026-05-02T09:57:13.002Z</time></trkpt><trkpt lat="45.7279963211462" lon="11.882771078274695"><ele>62.75</ele><time>2026-05-02T09:57:15.002Z</time></trkpt><trkpt lat="45.728113034071356" lon="11.882756406435442"><ele>62.5</ele><time>2026-05-02T09:57:17.002Z</time></trkpt><trkpt lat="45.72823371391847" lon="11.88274502120262"><ele>62.25</ele><time>2026-05-02T09:57:19.002Z</time></trkpt><trkpt lat="45.72835069856677" lon="11.882733554570521"><ele>62.0</ele><time>2026-05-02T09:57:21.002Z</time></trkpt><trkpt lat="45.72846487447909" lon="11.882722763438066"><ele>62.25</ele><time>2026-05-02T09:57:23.002Z</time></trkpt><trkpt lat="45.72857827801845" lon="11.882717192954289"><ele>62.5</ele><time>2026-05-02T09:57:25.002Z</time></trkpt><trkpt lat="45.72869398507356" lon="11.882708026813878"><ele>62.75</ele><time>2026-05-02T09:57:27.002Z</time></trkpt><trkpt lat="45.72881023002633" lon="11.882701495420578"><ele>63.0</ele><time>2026-05-02T09:57:29.003Z</time></trkpt><trkpt lat="45.728920831473474" lon="11.882688199291515"><ele>63.0</ele><time>2026-05-02T09:57:31.003Z</time></trkpt><trkpt lat="45.72903326392219" lon="11.882672192187353"><ele>63.0</ele><time>2026-05-02T09:57:32.998Z</time></trkpt><trkpt lat="45.72913612392338" lon="11.882679486876981"><ele>63.0</ele><time>2026-05-02T09:57:34.998Z</time></trkpt><trkpt lat="45.72924476089691" lon="11.882689588309539"><ele>63.0</ele><time>2026-05-02T09:57:36.999Z</time></trkpt><trkpt lat="45.72935546793061" lon="11.882711903577217"><ele>63.0</ele><time>2026-05-02T09:57:38.999Z</time></trkpt><trkpt lat="45.72946740028219" lon="11.882748166753945"><ele>63.2</ele><time>2026-05-02T09:57:40.999Z</time></trkpt><trkpt lat="45.72957181513731" lon="11.882806495516064"><ele>63.4</ele><time>2026-05-02T09:57:42.999Z</time></trkpt><trkpt lat="45.72967176584798" lon="11.8828580195639"><ele>63.60000000000001</ele><time>2026-05-02T09:57:44.999Z</time></trkpt><trkpt lat="45.72977617034493" lon="11.882918791995934"><ele>63.800000000000004</ele><time>2026-05-02T09:57:46.999Z</time></trkpt><trkpt lat="45.72988043355621" lon="11.882975584982937"><ele>64.0</ele><time>2026-05-02T09:57:48.999Z</time></trkpt><trkpt lat="45.72998250902425" lon="11.883018458143924"><ele>64.0</ele><time>2026-05-02T09:57:51Z</time></trkpt><trkpt lat="45.730088008654654" lon="11.883063451520147"><ele>64.0</ele><time>2026-05-02T09:57:53Z</time></trkpt><trkpt lat="45.73020648346666" lon="11.883094191626078"><ele>64.0</ele><time>2026-05-02T09:57:55Z</time></trkpt><trkpt lat="45.73032957992866" lon="11.883112424616913"><ele>64.0</ele><time>2026-05-02T09:57:57Z</time></trkpt><trkpt lat="45.73039395094436" lon="11.883114259395027"><ele>64.0</ele><time>2026-05-02T09:57:58Z</time></trkpt><trkpt lat="45.730517001636976" lon="11.883114903156306"><ele>64.0</ele><time>2026-05-02T09:58:00Z</time></trkpt><trkpt lat="45.73058594614206" lon="11.883108991018592"><ele>64.0</ele><time>2026-05-02T09:58:01Z</time></trkpt><trkpt lat="45.73069569557023" lon="11.883102801259215"><ele>64.0</ele><time>2026-05-02T09:58:03Z</time></trkpt><trkpt lat="45.73081329308493" lon="11.883070737456624"><ele>64.0</ele><time>2026-05-02T09:58:05Z</time></trkpt><trkpt lat="45.73087820207544" lon="11.883060479345337"><ele>64.0</ele><time>2026-05-02T09:58:06Z</time></trkpt><trkpt lat="45.73099968205438" lon="11.883050360332556"><ele>64.0</ele><time>2026-05-02T09:58:08Z</time></trkpt><trkpt lat="45.73110326199684" lon="11.883036630475447"><ele>64.0</ele><time>2026-05-02T09:58:10.001Z</time></trkpt><trkpt lat="45.73120633700151" lon="11.88301122378145"><ele>64.0</ele><time>2026-05-02T09:58:12.001Z</time></trkpt><trkpt lat="45.731301520554894" lon="11.883000240454376"><ele>64.0</ele><time>2026-05-02T09:58:14.001Z</time></trkpt><trkpt lat="45.73141739133145" lon="11.882970193500602"><ele>64.0</ele><time>2026-05-02T09:58:16.001Z</time></trkpt><trkpt lat="45.73148587535256" lon="11.882951214591888"><ele>64.0</ele><time>2026-05-02T09:58:17.001Z</time></trkpt><trkpt lat="45.731552781635486" lon="11.882939784094466"><ele>63.99999999999999</ele><time>2026-05-02T09:58:18.001Z</time></trkpt><trkpt lat="45.7316195228353" lon="11.882925309006962"><ele>64.0</ele><time>2026-05-02T09:58:19.001Z</time></trkpt><trkpt lat="45.731691335662426" lon="11.882906748952896"><ele>64.0</ele><time>2026-05-02T09:58:20.001Z</time></trkpt><trkpt lat="45.73175825395229" lon="11.882892679283207"><ele>63.99999999999999</ele><time>2026-05-02T09:58:21.001Z</time></trkpt><trkpt lat="45.731824043673406" lon="11.882874614806205"><ele>64.0</ele><time>2026-05-02T09:58:22.001Z</time></trkpt><trkpt lat="45.73189256446441" lon="11.882851032717772"><ele>64.0</ele><time>2026-05-02T09:58:23.001Z</time></trkpt><trkpt lat="45.73201848016282" lon="11.882829401815496"><ele>64.0</ele><time>2026-05-02T09:58:25.001Z</time></trkpt><trkpt lat="45.732081357058746" lon="11.882821899385817"><ele>64.0</ele><time>2026-05-02T09:58:26.001Z</time></trkpt><trkpt lat="45.732198063329626" lon="11.882792492986608"><ele>64.0</ele><time>2026-05-02T09:58:28.001Z</time></trkpt><trkpt lat="45.73231346088171" lon="11.882768391942966"><ele>64.0</ele><time>2026-05-02T09:58:30.001Z</time></trkpt><trkpt lat="45.732422475969166" lon="11.882744531047583"><ele>64.0</ele><time>2026-05-02T09:58:32.001Z</time></trkpt><trkpt lat="45.73253120787727" lon="11.882717931199448"><ele>64.0</ele><time>2026-05-02T09:58:34.001Z</time></trkpt><trkpt lat="45.732631421447536" lon="11.882688575495981"><ele>64.0</ele><time>2026-05-02T09:58:36.002Z</time></trkpt><trkpt lat="45.73273088223959" lon="11.88265971511407"><ele>64.0</ele><time>2026-05-02T09:58:38.002Z</time></trkpt><trkpt lat="45.73283286350614" lon="11.882631518321102"><ele>64.0</ele><time>2026-05-02T09:58:40.002Z</time></trkpt><trkpt lat="45.73292430318126" lon="11.882587006730335"><ele>64.0</ele><time>2026-05-02T09:58:42.002Z</time></trkpt><trkpt lat="45.73301594880789" lon="11.882536830105444"><ele>64.2</ele><time>2026-05-02T09:58:44.002Z</time></trkpt><trkpt lat="45.733105689796304" lon="11.882493189212301"><ele>64.4</ele><time>2026-05-02T09:58:46.002Z</time></trkpt><trkpt lat="45.733194236802376" lon="11.882439038711096"><ele>64.6</ele><time>2026-05-02T09:58:48.002Z</time></trkpt><trkpt lat="45.733277692485245" lon="11.882383691954013"><ele>64.8</ele><time>2026-05-02T09:58:50.002Z</time></trkpt><trkpt lat="45.73335130828187" lon="11.8823181868943"><ele>65.0</ele><time>2026-05-02T09:58:52.002Z</time></trkpt><trkpt lat="45.73342483013208" lon="11.882248992632055"><ele>65.0</ele><time>2026-05-02T09:58:54.002Z</time></trkpt><trkpt lat="45.73349823949572" lon="11.882171501481011"><ele>65.0</ele><time>2026-05-02T09:58:56.002Z</time></trkpt><trkpt lat="45.733564394113436" lon="11.882085129782912"><ele>65.0</ele><time>2026-05-02T09:58:58.002Z</time></trkpt><trkpt lat="45.73362396098844" lon="11.881987313480758"><ele>65.0</ele><time>2026-05-02T09:59:00.002Z</time></trkpt><trkpt lat="45.73368311124581" lon="11.88188483708463"><ele>65.0</ele><time>2026-05-02T09:59:02.002Z</time></trkpt><trkpt lat="45.73374281193163" lon="11.881787715829265"><ele>65.2</ele><time>2026-05-02T09:59:04.002Z</time></trkpt><trkpt lat="45.733805599745125" lon="11.881691632722625"><ele>65.4</ele><time>2026-05-02T09:59:06.002Z</time></trkpt><trkpt lat="45.73388011988155" lon="11.881617964530495"><ele>65.6</ele><time>2026-05-02T09:59:08.002Z</time></trkpt><trkpt lat="45.733972870054416" lon="11.881597611036277"><ele>65.8</ele><time>2026-05-02T09:59:10.003Z</time></trkpt><trkpt lat="45.73407120182962" lon="11.881608225009721"><ele>66.0</ele><time>2026-05-02T09:59:12.003Z</time></trkpt><trkpt lat="45.734171758879754" lon="11.881609753562701"><ele>66.0</ele><time>2026-05-02T09:59:14.003Z</time></trkpt><trkpt lat="45.73427863042051" lon="11.88159004072116"><ele>66.0</ele><time>2026-05-02T09:59:16.003Z</time></trkpt><trkpt lat="45.73439195432655" lon="11.881574324441134"><ele>66.0</ele><time>2026-05-02T09:59:18.003Z</time></trkpt><trkpt lat="45.734500809318725" lon="11.881571205356172"><ele>66.0</ele><time>2026-05-02T09:59:20.003Z</time></trkpt><trkpt lat="45.7345987298129" lon="11.881553763186403"><ele>66.0</ele><time>2026-05-02T09:59:22.003Z</time></trkpt><trkpt lat="45.734688087044596" lon="11.881521332074017"><ele>66.0</ele><time>2026-05-02T09:59:24.003Z</time></trkpt><trkpt lat="45.7347863889222" lon="11.88147784833028"><ele>66.0</ele><time>2026-05-02T09:59:26.003Z</time></trkpt><trkpt lat="45.734888513423456" lon="11.881443675770909"><ele>66.0</ele><time>2026-05-02T09:59:28.003Z</time></trkpt><trkpt lat="45.734997937125684" lon="11.881411660324195"><ele>66.0</ele><time>2026-05-02T09:59:30.003Z</time></trkpt><trkpt lat="45.73511377843748" lon="11.8813801653417"><ele>66.0</ele><time>2026-05-02T09:59:32.003Z</time></trkpt><trkpt lat="45.73522208210613" lon="11.88134021611914"><ele>66.0</ele><time>2026-05-02T09:59:34.003Z</time></trkpt><trkpt lat="45.73532039432095" lon="11.88130688140996"><ele>66.0</ele><time>2026-05-02T09:59:36.003Z</time></trkpt><trkpt lat="45.73538215378498" lon="11.881285051785058"><ele>66.0</ele><time>2026-05-02T09:59:37.003Z</time></trkpt><trkpt lat="45.73549169311216" lon="11.881243111054387"><ele>66.0</ele><time>2026-05-02T09:59:39Z</time></trkpt><trkpt lat="45.7356018462455" lon="11.881201391539737"><ele>66.0</ele><time>2026-05-02T09:59:41Z</time></trkpt><trkpt lat="45.73571356581149" lon="11.881157793436525"><ele>66.0</ele><time>2026-05-02T09:59:43Z</time></trkpt><trkpt lat="45.73581838261806" lon="11.881084585068194"><ele>66.0</ele><time>2026-05-02T09:59:45Z</time></trkpt><trkpt lat="45.73592435826562" lon="11.881003809266264"><ele>66.0</ele><time>2026-05-02T09:59:47Z</time></trkpt><trkpt lat="45.73603631490928" lon="11.880926198323271"><ele>66.0</ele><time>2026-05-02T09:59:49Z</time></trkpt><trkpt lat="45.736090927362866" lon="11.880878811060265"><ele>66.0</ele><time>2026-05-02T09:59:50Z</time></trkpt><trkpt lat="45.736147754268316" lon="11.880835296027065"><ele>66.28571428571428</ele><time>2026-05-02T09:59:51Z</time></trkpt><trkpt lat="45.73625733610231" lon="11.880749618915372"><ele>66.57142857142857</ele><time>2026-05-02T09:59:53Z</time></trkpt><trkpt lat="45.73630909689878" lon="11.880697536695005"><ele>66.85714285714286</ele><time>2026-05-02T09:59:54Z</time></trkpt><trkpt lat="45.73636113880644" lon="11.880644492050054"><ele>67.14285714285714</ele><time>2026-05-02T09:59:55Z</time></trkpt><trkpt lat="45.736414557245915" lon="11.880593483220693"><ele>67.42857142857143</ele><time>2026-05-02T09:59:56Z</time></trkpt><trkpt lat="45.736467256493505" lon="11.880541202945968"><ele>67.71428571428571</ele><time>2026-05-02T09:59:57Z</time></trkpt><trkpt lat="45.736519244636426" lon="11.880490313127181"><ele>68.0</ele><time>2026-05-02T09:59:58Z</time></trkpt><trkpt lat="45.736620599151856" lon="11.880386983971672"><ele>68.0</ele><time>2026-05-02T10:00:00Z</time></trkpt><trkpt lat="45.73672087306466" lon="11.880283295808571"><ele>68.0</ele><time>2026-05-02T10:00:02Z</time></trkpt><trkpt lat="45.73681999786284" lon="11.880184236180213"><ele>68.0</ele><time>2026-05-02T10:00:04Z</time></trkpt><trkpt lat="45.73691827049928" lon="11.880090556950263"><ele>68.0</ele><time>2026-05-02T10:00:06Z</time></trkpt><trkpt lat="45.73701173776049" lon="11.879986454390297"><ele>68.0</ele><time>2026-05-02T10:00:08Z</time></trkpt><trkpt lat="45.737113850490374" lon="11.879896836793161"><ele>68.0</ele><time>2026-05-02T10:00:10Z</time></trkpt><trkpt lat="45.73720840760652" lon="11.87980629334435"><ele>68.0</ele><time>2026-05-02T10:00:12Z</time></trkpt><trkpt lat="45.73730055870922" lon="11.879714069049752"><ele>68.0</ele><time>2026-05-02T10:00:14.001Z</time></trkpt><trkpt lat="45.737381231630586" lon="11.879629707419028"><ele>68.0</ele><time>2026-05-02T10:00:16.001Z</time></trkpt><trkpt lat="45.73747030629295" lon="11.879527684694033"><ele>68.0</ele><time>2026-05-02T10:00:18.001Z</time></trkpt><trkpt lat="45.737556168225694" lon="11.879444927906897"><ele>68.0</ele><time>2026-05-02T10:00:20.001Z</time></trkpt><trkpt lat="45.73764142532552" lon="11.879362576340746"><ele>68.0</ele><time>2026-05-02T10:00:22.001Z</time></trkpt><trkpt lat="45.737729972262414" lon="11.879277971060144"><ele>68.0</ele><time>2026-05-02T10:00:24.001Z</time></trkpt><trkpt lat="45.737819112945864" lon="11.879182698901468"><ele>68.0</ele><time>2026-05-02T10:00:26.001Z</time></trkpt><trkpt lat="45.7379113796672" lon="11.879091615039075"><ele>67.75</ele><time>2026-05-02T10:00:28.001Z</time></trkpt><trkpt lat="45.738002969788006" lon="11.87899811622877"><ele>67.5</ele><time>2026-05-02T10:00:30.001Z</time></trkpt><trkpt lat="45.73809546480551" lon="11.87890765164404"><ele>67.25</ele><time>2026-05-02T10:00:32.001Z</time></trkpt><trkpt lat="45.73819105499501" lon="11.878806850327862"><ele>67.0</ele><time>2026-05-02T10:00:34.001Z</time></trkpt><trkpt lat="45.738278820315315" lon="11.8787092123957"><ele>67.0</ele><time>2026-05-02T10:00:36.001Z</time></trkpt><trkpt lat="45.738370947264926" lon="11.878619512848982"><ele>67.0</ele><time>2026-05-02T10:00:38.001Z</time></trkpt><trkpt lat="45.73846368277394" lon="11.878529575475559"><ele>67.0</ele><time>2026-05-02T10:00:40.001Z</time></trkpt><trkpt lat="45.73855942244397" lon="11.87843463564746"><ele>67.0</ele><time>2026-05-02T10:00:42.001Z</time></trkpt><trkpt lat="45.738654099125455" lon="11.878334570447695"><ele>66.75</ele><time>2026-05-02T10:00:44.001Z</time></trkpt><trkpt lat="45.73874611337534" lon="11.878233187593898"><ele>66.5</ele><time>2026-05-02T10:00:46.002Z</time></trkpt><trkpt lat="45.73883753302687" lon="11.87814000425414"><ele>66.25</ele><time>2026-05-02T10:00:48.002Z</time></trkpt><trkpt lat="45.73893035123946" lon="11.878040351578644"><ele>66.0</ele><time>2026-05-02T10:00:50.002Z</time></trkpt><trkpt lat="45.73902268104593" lon="11.877936538817348"><ele>66.0</ele><time>2026-05-02T10:00:52.002Z</time></trkpt><trkpt lat="45.73911585394551" lon="11.877840295617867"><ele>66.0</ele><time>2026-05-02T10:00:54.002Z</time></trkpt><trkpt lat="45.73920926443764" lon="11.877743163093943"><ele>66.0</ele><time>2026-05-02T10:00:56.002Z</time></trkpt><trkpt lat="45.73929724969667" lon="11.877643768957912"><ele>66.0</ele><time>2026-05-02T10:00:58.002Z</time></trkpt><trkpt lat="45.73938677868262" lon="11.877555663574913"><ele>66.2</ele><time>2026-05-02T10:01:00.002Z</time></trkpt><trkpt lat="45.73947582555382" lon="11.877474058479905"><ele>66.39999999999999</ele><time>2026-05-02T10:01:02.002Z</time></trkpt><trkpt lat="45.739561298467" lon="11.877393038222774"><ele>66.6</ele><time>2026-05-02T10:01:04.002Z</time></trkpt><trkpt lat="45.739652800554666" lon="11.87732405469504"><ele>66.8</ele><time>2026-05-02T10:01:06.002Z</time></trkpt><trkpt lat="45.73975301993363" lon="11.877268226689853"><ele>67.0</ele><time>2026-05-02T10:01:08.002Z</time></trkpt><trkpt lat="45.73985655357994" lon="11.87722437216673"><ele>67.0</ele><time>2026-05-02T10:01:10.002Z</time></trkpt><trkpt lat="45.73995965123776" lon="11.877182927476706"><ele>67.0</ele><time>2026-05-02T10:01:12.002Z</time></trkpt><trkpt lat="45.74006125711777" lon="11.877149460290202"><ele>67.0</ele><time>2026-05-02T10:01:14.002Z</time></trkpt><trkpt lat="45.74016054850512" lon="11.877111268997075"><ele>67.0</ele><time>2026-05-02T10:01:16.002Z</time></trkpt><trkpt lat="45.740262531815766" lon="11.877068319942289"><ele>67.0</ele><time>2026-05-02T10:01:18.003Z</time></trkpt><trkpt lat="45.74036496503602" lon="11.87703132870846"><ele>67.2</ele><time>2026-05-02T10:01:20.003Z</time></trkpt><trkpt lat="45.740468043780915" lon="11.876988123868752"><ele>67.4</ele><time>2026-05-02T10:01:22.003Z</time></trkpt><trkpt lat="45.740569915508004" lon="11.876954372460778"><ele>67.6</ele><time>2026-05-02T10:01:24.003Z</time></trkpt><trkpt lat="45.74067035591291" lon="11.87691439569412"><ele>67.8</ele><time>2026-05-02T10:01:26.003Z</time></trkpt><trkpt lat="45.740773633416744" lon="11.876874669859228"><ele>68.0</ele><time>2026-05-02T10:01:28.003Z</time></trkpt><trkpt lat="45.74088282997707" lon="11.876840789977965"><ele>68.0</ele><time>2026-05-02T10:01:30.003Z</time></trkpt><trkpt lat="45.740988231228364" lon="11.87681755777868"><ele>68.0</ele><time>2026-05-02T10:01:32.003Z</time></trkpt><trkpt lat="45.741092103523236" lon="11.876811541031833"><ele>68.0</ele><time>2026-05-02T10:01:34.003Z</time></trkpt><trkpt lat="45.74120243857636" lon="11.876805240020696"><ele>68.0</ele><time>2026-05-02T10:01:36.003Z</time></trkpt><trkpt lat="45.74131297893496" lon="11.876805683330636"><ele>68.0</ele><time>2026-05-02T10:01:38.003Z</time></trkpt><trkpt lat="45.74142318416321" lon="11.8768073145887"><ele>68.2</ele><time>2026-05-02T10:01:40.003Z</time></trkpt><trkpt lat="45.74152571501833" lon="11.876817372620303"><ele>68.4</ele><time>2026-05-02T10:01:42.003Z</time></trkpt><trkpt lat="45.7416359441693" lon="11.876823018669786"><ele>68.60000000000001</ele><time>2026-05-02T10:01:44.003Z</time></trkpt><trkpt lat="45.74174841514904" lon="11.876823668703784"><ele>68.8</ele><time>2026-05-02T10:01:45.999Z</time></trkpt><trkpt lat="45.741865786038964" lon="11.876833610732291"><ele>69.0</ele><time>2026-05-02T10:01:47.999Z</time></trkpt><trkpt lat="45.741982163331386" lon="11.876838370754877"><ele>69.0</ele><time>2026-05-02T10:01:49.999Z</time></trkpt><trkpt lat="45.742098987498636" lon="11.876842376811982"><ele>69.0</ele><time>2026-05-02T10:01:51.999Z</time></trkpt><trkpt lat="45.74221546312701" lon="11.876849681462343"><ele>69.0</ele><time>2026-05-02T10:01:53.999Z</time></trkpt><trkpt lat="45.74233606843105" lon="11.876853030039667"><ele>69.0</ele><time>2026-05-02T10:01:55.999Z</time></trkpt><trkpt lat="45.74245425298366" lon="11.876856884364907"><ele>69.0</ele><time>2026-05-02T10:01:57.999Z</time></trkpt><trkpt lat="45.74251999948359" lon="11.876857794499138"><ele>69.0</ele><time>2026-05-02T10:01:58.999Z</time></trkpt><trkpt lat="45.742639145053666" lon="11.876865081820426"><ele>69.0</ele><time>2026-05-02T10:02:01Z</time></trkpt><trkpt lat="45.74275956848356" lon="11.8768714445813"><ele>69.0</ele><time>2026-05-02T10:02:03Z</time></trkpt><trkpt lat="45.742882290151044" lon="11.87687471503158"><ele>69.0</ele><time>2026-05-02T10:02:05Z</time></trkpt><trkpt lat="45.742946004609664" lon="11.876879373589857"><ele>68.8</ele><time>2026-05-02T10:02:06Z</time></trkpt><trkpt lat="45.74306972792527" lon="11.876886495878074"><ele>68.60000000000001</ele><time>2026-05-02T10:02:08Z</time></trkpt><trkpt lat="45.74318977026189" lon="11.87689054729655"><ele>68.4</ele><time>2026-05-02T10:02:10Z</time></trkpt><trkpt lat="45.74325332275059" lon="11.876892797196044"><ele>68.2</ele><time>2026-05-02T10:02:11Z</time></trkpt><trkpt lat="45.7433752801912" lon="11.876895466126138"><ele>68.0</ele><time>2026-05-02T10:02:13Z</time></trkpt><trkpt lat="45.743494135109344" lon="11.876901765421055"><ele>68.25</ele><time>2026-05-02T10:02:15Z</time></trkpt><trkpt lat="45.74361325143972" lon="11.876905144548823"><ele>68.5</ele><time>2026-05-02T10:02:17Z</time></trkpt><trkpt lat="45.74373588989679" lon="11.876913051202116"><ele>68.75</ele><time>2026-05-02T10:02:19Z</time></trkpt><trkpt lat="45.74385937160458" lon="11.876929421553928"><ele>69.0</ele><time>2026-05-02T10:02:21Z</time></trkpt><trkpt lat="45.74398110537525" lon="11.876961533204387"><ele>69.0</ele><time>2026-05-02T10:02:23.001Z</time></trkpt><trkpt lat="45.74410419815194" lon="11.877000027923602"><ele>69.0</ele><time>2026-05-02T10:02:25.001Z</time></trkpt><trkpt lat="45.744223359412565" lon="11.877038864526085"><ele>69.0</ele><time>2026-05-02T10:02:27.001Z</time></trkpt><trkpt lat="45.74434418776017" lon="11.877076751412035"><ele>69.0</ele><time>2026-05-02T10:02:29.001Z</time></trkpt><trkpt lat="45.74446434770227" lon="11.87710809568537"><ele>69.16666666666667</ele><time>2026-05-02T10:02:31.001Z</time></trkpt><trkpt lat="45.74452673258762" lon="11.877120415536007"><ele>69.33333333333333</ele><time>2026-05-02T10:02:32.001Z</time></trkpt><trkpt lat="45.74459012248949" lon="11.877133992572922"><ele>69.5</ele><time>2026-05-02T10:02:33.001Z</time></trkpt><trkpt lat="45.74471629172073" lon="11.87715111842631"><ele>69.66666666666666</ele><time>2026-05-02T10:02:35.001Z</time></trkpt><trkpt lat="45.744779918141795" lon="11.877159349539038"><ele>69.83333333333333</ele><time>2026-05-02T10:02:36.001Z</time></trkpt><trkpt lat="45.7449008441284" lon="11.877179008312025"><ele>70.0</ele><time>2026-05-02T10:02:38.001Z</time></trkpt><trkpt lat="45.745022824872905" lon="11.87719535587279"><ele>70.0</ele><time>2026-05-02T10:02:40.001Z</time></trkpt><trkpt lat="45.745085913215576" lon="11.877206543134047"><ele>70.0</ele><time>2026-05-02T10:02:41.001Z</time></trkpt><trkpt lat="45.74515021473961" lon="11.877217575802055"><ele>70.0</ele><time>2026-05-02T10:02:42.001Z</time></trkpt><trkpt lat="45.74527439716302" lon="11.877231110606035"><ele>70.0</ele><time>2026-05-02T10:02:44.001Z</time></trkpt><trkpt lat="45.74539401799637" lon="11.877249039637727"><ele>70.0</ele><time>2026-05-02T10:02:46.001Z</time></trkpt><trkpt lat="45.745521031406206" lon="11.877267074090971"><ele>70.4</ele><time>2026-05-02T10:02:48.001Z</time></trkpt><trkpt lat="45.74564373711785" lon="11.877282144185576"><ele>70.8</ele><time>2026-05-02T10:02:50.001Z</time></trkpt><trkpt lat="45.74570865728021" lon="11.877288949688593"><ele>71.2</ele><time>2026-05-02T10:02:51.001Z</time></trkpt><trkpt lat="45.74577201806162" lon="11.877298165537573"><ele>71.6</ele><time>2026-05-02T10:02:52.001Z</time></trkpt><trkpt lat="45.74589654569036" lon="11.877316344614968"><ele>72.0</ele><time>2026-05-02T10:02:54.002Z</time></trkpt><trkpt lat="45.74602013182969" lon="11.877335029930437"><ele>71.66666666666667</ele><time>2026-05-02T10:02:56.002Z</time></trkpt><trkpt lat="45.746082983826966" lon="11.877346845756984"><ele>71.33333333333333</ele><time>2026-05-02T10:02:57.002Z</time></trkpt><trkpt lat="45.74614583539401" lon="11.877360335312229"><ele>71.0</ele><time>2026-05-02T10:02:58.002Z</time></trkpt><trkpt lat="45.7462090543608" lon="11.87737382030962"><ele>70.66666666666666</ele><time>2026-05-02T10:02:59.002Z</time></trkpt><trkpt lat="45.74633111854174" lon="11.877404644762636"><ele>70.33333333333333</ele><time>2026-05-02T10:03:01.002Z</time></trkpt><trkpt lat="45.746392250465796" lon="11.877426489009169"><ele>70.0</ele><time>2026-05-02T10:03:02.002Z</time></trkpt><trkpt lat="45.7465087648078" lon="11.877484961307351"><ele>70.0</ele><time>2026-05-02T10:03:04.002Z</time></trkpt><trkpt lat="45.7465646320676" lon="11.877528133732113"><ele>70.0</ele><time>2026-05-02T10:03:05.002Z</time></trkpt><trkpt lat="45.74666405694665" lon="11.877612848741913"><ele>70.0</ele><time>2026-05-02T10:03:07.002Z</time></trkpt><trkpt lat="45.74676951742866" lon="11.877699696918484"><ele>70.0</ele><time>2026-05-02T10:03:09.002Z</time></trkpt><trkpt lat="45.746877616287016" lon="11.877786005170236"><ele>70.0</ele><time>2026-05-02T10:03:11.002Z</time></trkpt><trkpt lat="45.7469354726505" lon="11.877821912730916"><ele>70.5</ele><time>2026-05-02T10:03:12.002Z</time></trkpt><trkpt lat="45.74704535728395" lon="11.877881067212378"><ele>71.0</ele><time>2026-05-02T10:03:14.002Z</time></trkpt><trkpt lat="45.74715468548854" lon="11.877916834475906"><ele>71.5</ele><time>2026-05-02T10:03:16.002Z</time></trkpt><trkpt lat="45.747273923926265" lon="11.877945805835957"><ele>72.0</ele><time>2026-05-02T10:03:18.002Z</time></trkpt><trkpt lat="45.74738643092007" lon="11.877977186543053"><ele>72.0</ele><time>2026-05-02T10:03:20.002Z</time></trkpt><trkpt lat="45.747504397424095" lon="11.87801112458762"><ele>72.0</ele><time>2026-05-02T10:03:22.002Z</time></trkpt><trkpt lat="45.74762070502159" lon="11.878042566851537"><ele>72.0</ele><time>2026-05-02T10:03:24.002Z</time></trkpt><trkpt lat="45.74774244455927" lon="11.878072681355906"><ele>72.0</ele><time>2026-05-02T10:03:26.003Z</time></trkpt><trkpt lat="45.74785884804594" lon="11.878099849495058"><ele>72.0</ele><time>2026-05-02T10:03:28.003Z</time></trkpt><trkpt lat="45.74798106890845" lon="11.878126547488716"><ele>72.0</ele><time>2026-05-02T10:03:30.003Z</time></trkpt><trkpt lat="45.74809845395291" lon="11.878153653405267"><ele>72.0</ele><time>2026-05-02T10:03:32.003Z</time></trkpt><trkpt lat="45.74821238766402" lon="11.878184567195374"><ele>72.0</ele><time>2026-05-02T10:03:34.003Z</time></trkpt><trkpt lat="45.74827486916423" lon="11.878196003939376"><ele>72.0</ele><time>2026-05-02T10:03:35.003Z</time></trkpt><trkpt lat="45.74834016951799" lon="11.878206143414875"><ele>72.0</ele><time>2026-05-02T10:03:36.003Z</time></trkpt><trkpt lat="45.74846237370835" lon="11.878225613849358"><ele>72.0</ele><time>2026-05-02T10:03:38.003Z</time></trkpt><trkpt lat="45.748526863445015" lon="11.87823634777509"><ele>72.0</ele><time>2026-05-02T10:03:39.003Z</time></trkpt><trkpt lat="45.74865116720915" lon="11.878252330112934"><ele>72.0</ele><time>2026-05-02T10:03:41.003Z</time></trkpt><trkpt lat="45.748715104652035" lon="11.878260355336163"><ele>72.0</ele><time>2026-05-02T10:03:42.003Z</time></trkpt><trkpt lat="45.748838404856436" lon="11.87827976441122"><ele>72.0</ele><time>2026-05-02T10:03:44.003Z</time></trkpt><trkpt lat="45.74890167286256" lon="11.878290307756401"><ele>72.0</ele><time>2026-05-02T10:03:45.003Z</time></trkpt><trkpt lat="45.74902298342336" lon="11.878309416005507"><ele>72.0</ele><time>2026-05-02T10:03:47.003Z</time></trkpt><trkpt lat="45.74908802681337" lon="11.878317953034532"><ele>72.0</ele><time>2026-05-02T10:03:48.003Z</time></trkpt><trkpt lat="45.749152695476354" lon="11.878323479508802"><ele>72.0</ele><time>2026-05-02T10:03:49.003Z</time></trkpt><trkpt lat="45.74927222846732" lon="11.878342756975458"><ele>72.0</ele><time>2026-05-02T10:03:50.997Z</time></trkpt><trkpt lat="45.74939423151825" lon="11.87836378341596"><ele>72.0</ele><time>2026-05-02T10:03:52.998Z</time></trkpt><trkpt lat="45.74951260108675" lon="11.878383416968095"><ele>72.0</ele><time>2026-05-02T10:03:54.998Z</time></trkpt><trkpt lat="45.749637036187984" lon="11.878403283061559"><ele>72.0</ele><time>2026-05-02T10:03:56.998Z</time></trkpt><trkpt lat="45.749759651874015" lon="11.878424035335083"><ele>72.0</ele><time>2026-05-02T10:03:58.998Z</time></trkpt><trkpt lat="45.749882597095585" lon="11.878434169983507"><ele>72.0</ele><time>2026-05-02T10:04:00.999Z</time></trkpt><trkpt lat="45.75000603292642" lon="11.878454355811357"><ele>72.0</ele><time>2026-05-02T10:04:02.999Z</time></trkpt><trkpt lat="45.75012448544676" lon="11.878482738460903"><ele>72.0</ele><time>2026-05-02T10:04:04.999Z</time></trkpt><trkpt lat="45.75024081819517" lon="11.878505673498626"><ele>72.0</ele><time>2026-05-02T10:04:06.999Z</time></trkpt><trkpt lat="45.75035313128112" lon="11.878514189641766"><ele>72.2</ele><time>2026-05-02T10:04:08.999Z</time></trkpt><trkpt lat="45.75046695376491" lon="11.878537641435504"><ele>72.4</ele><time>2026-05-02T10:04:10.999Z</time></trkpt><trkpt lat="45.7505872195862" lon="11.878557337980487"><ele>72.6</ele><time>2026-05-02T10:04:13Z</time></trkpt><trkpt lat="45.7506950598244" lon="11.878575307943109"><ele>72.8</ele><time>2026-05-02T10:04:15Z</time></trkpt><trkpt lat="45.75079248825759" lon="11.878589831232903"><ele>73.0</ele><time>2026-05-02T10:04:17Z</time></trkpt><trkpt lat="45.75085982448458" lon="11.878638578907555"><ele>73.0</ele><time>2026-05-02T10:04:19Z</time></trkpt><trkpt lat="45.750922481888686" lon="11.878695161378195"><ele>73.0</ele><time>2026-05-02T10:04:22Z</time></trkpt><trkpt lat="45.750919771444096" lon="11.878831082517367"><ele>73.0</ele><time>2026-05-02T10:04:25Z</time></trkpt><trkpt lat="45.750918313553" lon="11.878940910752595"><ele>73.0</ele><time>2026-05-02T10:04:27Z</time></trkpt><trkpt lat="45.750945403751764" lon="11.879049535910717"><ele>73.0</ele><time>2026-05-02T10:04:29.001Z</time></trkpt><trkpt lat="45.75103057111235" lon="11.879074136315648"><ele>73.0</ele><time>2026-05-02T10:04:31.001Z</time></trkpt><trkpt lat="45.75111674239044" lon="11.87907434187538"><ele>72.8</ele><time>2026-05-02T10:04:33.001Z</time></trkpt><trkpt lat="45.75120692462535" lon="11.879094672645921"><ele>72.6</ele><time>2026-05-02T10:04:35.001Z</time></trkpt><trkpt lat="45.75131003387822" lon="11.879110601241436"><ele>72.4</ele><time>2026-05-02T10:04:37.001Z</time></trkpt><trkpt lat="45.75141514434242" lon="11.879122286819133"><ele>72.2</ele><time>2026-05-02T10:04:39.001Z</time></trkpt><trkpt lat="45.751524729710006" lon="11.879132356282074"><ele>72.0</ele><time>2026-05-02T10:04:41.001Z</time></trkpt><trkpt lat="45.75163158880944" lon="11.879148636446654"><ele>72.0</ele><time>2026-05-02T10:04:43.001Z</time></trkpt><trkpt lat="45.75173005798466" lon="11.879167716470837"><ele>72.0</ele><time>2026-05-02T10:04:45.001Z</time></trkpt><trkpt lat="45.75181415577739" lon="11.87917567561239"><ele>72.0</ele><time>2026-05-02T10:04:47.001Z</time></trkpt><trkpt lat="45.75189544199713" lon="11.879200287522657"><ele>72.0</ele><time>2026-05-02T10:04:49.001Z</time></trkpt><trkpt lat="45.751961959141774" lon="11.879258540318306"><ele>72.0</ele><time>2026-05-02T10:04:51.001Z</time></trkpt><trkpt lat="45.75204097933965" lon="11.879279729393781"><ele>72.0</ele><time>2026-05-02T10:04:54.001Z</time></trkpt><trkpt lat="45.7521041888759" lon="11.879269311069585"><ele>72.14285714285715</ele><time>2026-05-02T10:07:07.002Z</time></trkpt><trkpt lat="45.75218393358657" lon="11.879248071692711"><ele>72.28571428571429</ele><time>2026-05-02T10:07:12.002Z</time></trkpt><trkpt lat="45.75224707766731" lon="11.879221420915677"><ele>72.42857142857143</ele><time>2026-05-02T10:07:15.002Z</time></trkpt><trkpt lat="45.75231938360092" lon="11.879239648858025"><ele>72.57142857142858</ele><time>2026-05-02T10:07:18.002Z</time></trkpt><trkpt lat="45.75238291362501" lon="11.879260330557264"><ele>72.71428571428572</ele><time>2026-05-02T10:07:20.002Z</time></trkpt><trkpt lat="45.7524609223158" lon="11.879266436196538"><ele>72.85714285714286</ele><time>2026-05-02T10:07:22.002Z</time></trkpt><trkpt lat="45.752545623251244" lon="11.879275932594972"><ele>73.0</ele><time>2026-05-02T10:07:24.002Z</time></trkpt><trkpt lat="45.75263198584472" lon="11.87928915063219"><ele>73.0</ele><time>2026-05-02T10:07:26.002Z</time></trkpt><trkpt lat="45.75271929877438" lon="11.879290680920906"><ele>73.0</ele><time>2026-05-02T10:07:28.002Z</time></trkpt><trkpt lat="45.75282013617186" lon="11.87931157014188"><ele>73.0</ele><time>2026-05-02T10:07:30.002Z</time></trkpt><trkpt lat="45.75292558407921" lon="11.879306655071781"><ele>73.0</ele><time>2026-05-02T10:07:32.003Z</time></trkpt><trkpt lat="45.75303340973086" lon="11.879321228215804"><ele>73.0</ele><time>2026-05-02T10:07:34.003Z</time></trkpt><trkpt lat="45.75314465463214" lon="11.879327446348068"><ele>73.0</ele><time>2026-05-02T10:07:36.003Z</time></trkpt><trkpt lat="45.753262153649366" lon="11.879334735298743"><ele>73.0</ele><time>2026-05-02T10:07:38.003Z</time></trkpt><trkpt lat="45.75337753356993" lon="11.879341368213613"><ele>73.0</ele><time>2026-05-02T10:07:40.003Z</time></trkpt><trkpt lat="45.75349193469017" lon="11.879352892756012"><ele>73.0</ele><time>2026-05-02T10:07:42.003Z</time></trkpt><trkpt lat="45.75360639173817" lon="11.879357373626691"><ele>72.75</ele><time>2026-05-02T10:07:44.003Z</time></trkpt><trkpt lat="45.75372544856097" lon="11.879368416921439"><ele>72.5</ele><time>2026-05-02T10:07:46.003Z</time></trkpt><trkpt lat="45.75384038101217" lon="11.87937309015045"><ele>72.25</ele><time>2026-05-02T10:07:48.003Z</time></trkpt><trkpt lat="45.75395611010788" lon="11.879381200571498"><ele>72.0</ele><time>2026-05-02T10:07:50.003Z</time></trkpt><trkpt lat="45.75406922144859" lon="11.879391225445284"><ele>72.0</ele><time>2026-05-02T10:07:52.003Z</time></trkpt><trkpt lat="45.754190464810165" lon="11.879395625123273"><ele>72.0</ele><time>2026-05-02T10:07:54.003Z</time></trkpt><trkpt lat="45.754310164298694" lon="11.879410934679985"><ele>72.0</ele><time>2026-05-02T10:07:56.003Z</time></trkpt><trkpt lat="45.75442361705541" lon="11.879419569784618"><ele>72.0</ele><time>2026-05-02T10:07:58.003Z</time></trkpt><trkpt lat="45.754543680076054" lon="11.879424269862469"><ele>72.4</ele><time>2026-05-02T10:08:00.003Z</time></trkpt><trkpt lat="45.75460924492893" lon="11.879429291805016"><ele>72.80000000000001</ele><time>2026-05-02T10:08:01.003Z</time></trkpt><trkpt lat="45.75467394867607" lon="11.879436629044749"><ele>73.2</ele><time>2026-05-02T10:08:02.003Z</time></trkpt><trkpt lat="45.75479741796897" lon="11.879446117905882"><ele>73.60000000000001</ele><time>2026-05-02T10:08:03.999Z</time></trkpt><trkpt lat="45.75489930407593" lon="11.879448671217732"><ele>74.0</ele><time>2026-05-02T10:08:06Z</time></trkpt><trkpt lat="45.75499766901062" lon="11.879455533072761"><ele>74.0</ele><time>2026-05-02T10:08:08Z</time></trkpt><trkpt lat="45.75507568396188" lon="11.879464142696524"><ele>74.0</ele><time>2026-05-02T10:08:09Z</time></trkpt><trkpt lat="45.755140678586685" lon="11.879470365728839"><ele>74.0</ele><time>2026-05-02T10:08:10Z</time></trkpt><trkpt lat="45.75525334766921" lon="11.879474067437844"><ele>74.0</ele><time>2026-05-02T10:08:12Z</time></trkpt><trkpt lat="45.755373169533016" lon="11.879476449493083"><ele>74.0</ele><time>2026-05-02T10:08:14Z</time></trkpt><trkpt lat="45.75549398116322" lon="11.879488452480837"><ele>74.0</ele><time>2026-05-02T10:08:16Z</time></trkpt><trkpt lat="45.75561260976279" lon="11.879493735026724"><ele>74.0</ele><time>2026-05-02T10:08:18Z</time></trkpt><trkpt lat="45.75573200363205" lon="11.879510165102753"><ele>74.0</ele><time>2026-05-02T10:08:20Z</time></trkpt><trkpt lat="45.75584980969335" lon="11.879508651239167"><ele>74.0</ele><time>2026-05-02T10:08:22Z</time></trkpt><trkpt lat="45.75594114931555" lon="11.879524156773122"><ele>74.0</ele><time>2026-05-02T10:08:24Z</time></trkpt><trkpt lat="45.75603487271412" lon="11.87954006639019"><ele>74.0</ele><time>2026-05-02T10:08:26Z</time></trkpt><trkpt lat="45.756132873637185" lon="11.879550029326817"><ele>74.0</ele><time>2026-05-02T10:08:28Z</time></trkpt><trkpt lat="45.7561875862572" lon="11.87961057538084"><ele>74.0</ele><time>2026-05-02T10:08:30Z</time></trkpt><trkpt lat="45.75627749334313" lon="11.879407284547776"><ele>74.0</ele><time>2026-05-02T10:08:31Z</time></trkpt><trkpt lat="45.75636952559907" lon="11.879326883724417"><ele>74.0</ele><time>2026-05-02T10:08:33Z</time></trkpt><trkpt lat="45.75648720736649" lon="11.879272209186546"><ele>74.2</ele><time>2026-05-02T10:08:35Z</time></trkpt><trkpt lat="45.756553007850044" lon="11.879250017266383"><ele>74.4</ele><time>2026-05-02T10:08:36Z</time></trkpt><trkpt lat="45.756666513700424" lon="11.879212774678372"><ele>74.6</ele><time>2026-05-02T10:08:38Z</time></trkpt><trkpt lat="45.756784641246746" lon="11.879186424051593"><ele>74.8</ele><time>2026-05-02T10:08:40.001Z</time></trkpt><trkpt lat="45.75690552771979" lon="11.87917014656884"><ele>75.0</ele><time>2026-05-02T10:08:42.001Z</time></trkpt><trkpt lat="45.75702563735809" lon="11.879145712969182"><ele>75.0</ele><time>2026-05-02T10:08:44.001Z</time></trkpt><trkpt lat="45.75714849700732" lon="11.879136392132878"><ele>75.0</ele><time>2026-05-02T10:08:46.001Z</time></trkpt><trkpt lat="45.757263392398464" lon="11.879155692971942"><ele>75.0</ele><time>2026-05-02T10:08:48.001Z</time></trkpt><trkpt lat="45.757376969697205" lon="11.879229944014112"><ele>75.0</ele><time>2026-05-02T10:08:50.001Z</time></trkpt><trkpt lat="45.75743499607699" lon="11.879269858621914"><ele>75.0</ele><time>2026-05-02T10:08:51.001Z</time></trkpt><trkpt lat="45.757544458329704" lon="11.879342877763277"><ele>74.75</ele><time>2026-05-02T10:08:53.001Z</time></trkpt><trkpt lat="45.75764838661315" lon="11.879428179750342"><ele>74.5</ele><time>2026-05-02T10:08:55.001Z</time></trkpt><trkpt lat="45.75775527459983" lon="11.879514457241353"><ele>74.25</ele><time>2026-05-02T10:08:57.001Z</time></trkpt><trkpt lat="45.75786560261747" lon="11.879595439003937"><ele>74.0</ele><time>2026-05-02T10:08:59.001Z</time></trkpt><trkpt lat="45.75797103667972" lon="11.879674962730384"><ele>74.0</ele><time>2026-05-02T10:09:01.001Z</time></trkpt><trkpt lat="45.75808019344377" lon="11.879750327934781"><ele>74.0</ele><time>2026-05-02T10:09:03.001Z</time></trkpt><trkpt lat="45.75818589952111" lon="11.879831452289798"><ele>74.0</ele><time>2026-05-02T10:09:05.001Z</time></trkpt><trkpt lat="45.75829321803474" lon="11.879908139590484"><ele>74.0</ele><time>2026-05-02T10:09:07.001Z</time></trkpt><trkpt lat="45.75840028602099" lon="11.87998762456154"><ele>74.0</ele><time>2026-05-02T10:09:09.001Z</time></trkpt><trkpt lat="45.75850500939565" lon="11.880063381064002"><ele>74.0</ele><time>2026-05-02T10:09:11.002Z</time></trkpt><trkpt lat="45.7586141988787" lon="11.880145118243346"><ele>74.0</ele><time>2026-05-02T10:09:13.002Z</time></trkpt><trkpt lat="45.7587132994525" lon="11.880233983233024"><ele>74.0</ele><time>2026-05-02T10:09:15.002Z</time></trkpt><trkpt lat="45.75881441818984" lon="11.880336753376431"><ele>74.5</ele><time>2026-05-02T10:09:17.002Z</time></trkpt><trkpt lat="45.75886593565256" lon="11.880391757876398"><ele>75.0</ele><time>2026-05-02T10:09:18.002Z</time></trkpt><trkpt lat="45.758914190301454" lon="11.880449760375978"><ele>75.5</ele><time>2026-05-02T10:09:19.002Z</time></trkpt><trkpt lat="45.758998641010855" lon="11.880544428742267"><ele>76.0</ele><time>2026-05-02T10:09:21.002Z</time></trkpt><trkpt lat="45.75907185108236" lon="11.880623389674705"><ele>76.5</ele><time>2026-05-02T10:09:23.002Z</time></trkpt><trkpt lat="45.75911928846158" lon="11.880686482716786"><ele>77.0</ele><time>2026-05-02T10:09:24.002Z</time></trkpt><trkpt lat="45.75922635191692" lon="11.880771419075487"><ele>77.0</ele><time>2026-05-02T10:09:26.002Z</time></trkpt><trkpt lat="45.75927877562282" lon="11.880850029832224"><ele>77.0</ele><time>2026-05-02T10:09:27.002Z</time></trkpt><trkpt lat="45.75934323467604" lon="11.880902511902063"><ele>77.0</ele><time>2026-05-02T10:09:28.002Z</time></trkpt><trkpt lat="45.75938969905561" lon="11.880973096040387"><ele>77.0</ele><time>2026-05-02T10:09:29.002Z</time></trkpt><trkpt lat="45.75945439058838" lon="11.881119996368062"><ele>77.0</ele><time>2026-05-02T10:09:31.002Z</time></trkpt><trkpt lat="45.75947644586174" lon="11.881284610354552"><ele>77.0</ele><time>2026-05-02T10:09:33.002Z</time></trkpt><trkpt lat="45.75949215416176" lon="11.88145543579728"><ele>77.0</ele><time>2026-05-02T10:09:35.002Z</time></trkpt><trkpt lat="45.759502640667876" lon="11.881627223083017"><ele>77.0</ele><time>2026-05-02T10:09:37.002Z</time></trkpt><trkpt lat="45.75952529205185" lon="11.881788207373434"><ele>77.0</ele><time>2026-05-02T10:09:39.002Z</time></trkpt><trkpt lat="45.75960207350414" lon="11.881902213499906"><ele>76.8</ele><time>2026-05-02T10:09:41.002Z</time></trkpt><trkpt lat="45.75972482550182" lon="11.881939385130181"><ele>76.6</ele><time>2026-05-02T10:09:43.002Z</time></trkpt><trkpt lat="45.7597885130393" lon="11.881943432850777"><ele>76.39999999999999</ele><time>2026-05-02T10:09:44.002Z</time></trkpt><trkpt lat="45.75990943188824" lon="11.88196208905028"><ele>76.2</ele><time>2026-05-02T10:09:46.003Z</time></trkpt><trkpt lat="45.75997229925873" lon="11.881971898058096"><ele>76.0</ele><time>2026-05-02T10:09:47.003Z</time></trkpt><trkpt lat="45.7600931445482" lon="11.881985011525416"><ele>76.2</ele><time>2026-05-02T10:09:49.003Z</time></trkpt><trkpt lat="45.76020846076172" lon="11.881997316768468"><ele>76.39999999999999</ele><time>2026-05-02T10:09:51.003Z</time></trkpt><trkpt lat="45.76032500858991" lon="11.882007839341712"><ele>76.6</ele><time>2026-05-02T10:09:53.003Z</time></trkpt><trkpt lat="45.76042378373905" lon="11.882022945968382"><ele>76.8</ele><time>2026-05-02T10:09:55.003Z</time></trkpt><trkpt lat="45.76049360160875" lon="11.882149197014469"><ele>77.0</ele><time>2026-05-02T10:09:57.003Z</time></trkpt><trkpt lat="45.76050441108807" lon="11.882254631289598"><ele>77.0</ele><time>2026-05-02T10:09:58.003Z</time></trkpt><trkpt lat="45.76053738529661" lon="11.882420187498074"><ele>77.0</ele><time>2026-05-02T10:10:00.003Z</time></trkpt><trkpt lat="45.76060872280752" lon="11.882475349698748"><ele>77.0</ele><time>2026-05-02T10:10:02.003Z</time></trkpt><trkpt lat="45.760713076463006" lon="11.882499798796212"><ele>77.0</ele><time>2026-05-02T10:10:04.003Z</time></trkpt><trkpt lat="45.76079203123426" lon="11.882504486273389"><ele>77.0</ele><time>2026-05-02T10:10:05.003Z</time></trkpt><trkpt lat="45.76085978026988" lon="11.88248536019426"><ele>77.0</ele><time>2026-05-02T10:10:06.003Z</time></trkpt><trkpt lat="45.76098047451254" lon="11.88249256317727"><ele>77.0</ele><time>2026-05-02T10:10:08.003Z</time></trkpt><trkpt lat="45.76110155690534" lon="11.882493655971906"><ele>77.0</ele><time>2026-05-02T10:10:09.999Z</time></trkpt><trkpt lat="45.76121263122915" lon="11.882513831348389"><ele>77.0</ele><time>2026-05-02T10:10:11.999Z</time></trkpt><trkpt lat="45.76131273750019" lon="11.882589487870273"><ele>77.2</ele><time>2026-05-02T10:10:13.999Z</time></trkpt><trkpt lat="45.761377895521015" lon="11.882728192939581"><ele>77.4</ele><time>2026-05-02T10:10:15.999Z</time></trkpt><trkpt lat="45.76142479746769" lon="11.882884374448114"><ele>77.6</ele><time>2026-05-02T10:10:17.999Z</time></trkpt><trkpt lat="45.76145121576691" lon="11.882967395904693"><ele>77.8</ele><time>2026-05-02T10:10:18.999Z</time></trkpt><trkpt lat="45.76149626494631" lon="11.883123305584267"><ele>78.0</ele><time>2026-05-02T10:10:20.999Z</time></trkpt><trkpt lat="45.76153068217218" lon="11.88328970356577"><ele>78.0</ele><time>2026-05-02T10:10:22.999Z</time></trkpt><trkpt lat="45.76155395517181" lon="11.883449125240583"><ele>78.0</ele><time>2026-05-02T10:10:25Z</time></trkpt><trkpt lat="45.761575674179625" lon="11.883616805294745"><ele>78.0</ele><time>2026-05-02T10:10:27Z</time></trkpt><trkpt lat="45.76161181808567" lon="11.88379177496332"><ele>78.0</ele><time>2026-05-02T10:10:29Z</time></trkpt><trkpt lat="45.76166163485907" lon="11.883956998161665"><ele>78.0</ele><time>2026-05-02T10:10:31Z</time></trkpt><trkpt lat="45.76168813957149" lon="11.884047035220613"><ele>78.0</ele><time>2026-05-02T10:10:32Z</time></trkpt><trkpt lat="45.76172221453411" lon="11.88413023648383"><ele>78.0</ele><time>2026-05-02T10:10:33Z</time></trkpt><trkpt lat="45.761803425929195" lon="11.884280182050782"><ele>78.0</ele><time>2026-05-02T10:10:35Z</time></trkpt><trkpt lat="45.76185283973341" lon="11.884348455241152"><ele>78.0</ele><time>2026-05-02T10:10:36Z</time></trkpt><trkpt lat="45.76192925086351" lon="11.884436342472874"><ele>78.0</ele><time>2026-05-02T10:10:38Z</time></trkpt><trkpt lat="45.7620233441511" lon="11.88449403927501"><ele>77.8</ele><time>2026-05-02T10:10:40Z</time></trkpt><trkpt lat="45.762139417000355" lon="11.884578402878548"><ele>77.6</ele><time>2026-05-02T10:10:42Z</time></trkpt><trkpt lat="45.762248789415395" lon="11.884609550340024"><ele>77.4</ele><time>2026-05-02T10:10:44.001Z</time></trkpt><trkpt lat="45.76234617305194" lon="11.884647749877361"><ele>77.2</ele><time>2026-05-02T10:10:46.001Z</time></trkpt><trkpt lat="45.762412092696" lon="11.884658681382536"><ele>77.0</ele><time>2026-05-02T10:10:47.001Z</time></trkpt><trkpt lat="45.762532613110736" lon="11.884676065974356"><ele>77.0</ele><time>2026-05-02T10:10:49.001Z</time></trkpt><trkpt lat="45.7626487596815" lon="11.884689600528672"><ele>77.0</ele><time>2026-05-02T10:10:51.001Z</time></trkpt><trkpt lat="45.76275707006197" lon="11.884690032924446"><ele>77.0</ele><time>2026-05-02T10:10:53.001Z</time></trkpt><trkpt lat="45.76287085801931" lon="11.884662092289622"><ele>77.0</ele><time>2026-05-02T10:10:55.001Z</time></trkpt><trkpt lat="45.7629729785111" lon="11.884646180697487"><ele>77.0</ele><time>2026-05-02T10:10:57.001Z</time></trkpt><trkpt lat="45.7630815992621" lon="11.884609342095342"><ele>77.33333333333334</ele><time>2026-05-02T10:10:59.001Z</time></trkpt><trkpt lat="45.76318432535909" lon="11.884596579632147"><ele>77.66666666666667</ele><time>2026-05-02T10:11:01.001Z</time></trkpt><trkpt lat="45.76327838894607" lon="11.884604014947572"><ele>78.0</ele><time>2026-05-02T10:11:03.001Z</time></trkpt><trkpt lat="45.76336182829238" lon="11.884605503819479"><ele>78.33333333333333</ele><time>2026-05-02T10:11:05.001Z</time></trkpt><trkpt lat="45.76341794396383" lon="11.884648761294615"><ele>78.66666666666666</ele><time>2026-05-02T10:11:07.001Z</time></trkpt><trkpt lat="45.76348372548085" lon="11.884672345349662"><ele>79.0</ele><time>2026-05-02T10:11:10.001Z</time></trkpt><trkpt lat="45.76354212222563" lon="11.88474086884383"><ele>79.0</ele><time>2026-05-02T10:11:14.002Z</time></trkpt><trkpt lat="45.76360456977056" lon="11.884816255452797"><ele>79.0</ele><time>2026-05-02T10:11:19.002Z</time></trkpt><trkpt lat="45.763586224856674" lon="11.884997454919919"><ele>79.0</ele><time>2026-05-02T10:11:21.002Z</time></trkpt><trkpt lat="45.763584651704214" lon="11.885166752241608"><ele>79.0</ele><time>2026-05-02T10:11:23.002Z</time></trkpt><trkpt lat="45.76357925072268" lon="11.88534440741662"><ele>79.2</ele><time>2026-05-02T10:11:25.002Z</time></trkpt><trkpt lat="45.76358704474694" lon="11.885515029387665"><ele>79.4</ele><time>2026-05-02T10:11:27.002Z</time></trkpt><trkpt lat="45.76359999016864" lon="11.885606300066208"><ele>79.6</ele><time>2026-05-02T10:11:28.002Z</time></trkpt><trkpt lat="45.763634192351084" lon="11.885767883340627"><ele>79.8</ele><time>2026-05-02T10:11:30.002Z</time></trkpt><trkpt lat="45.76366243023001" lon="11.885855384537312"><ele>80.0</ele><time>2026-05-02T10:11:31.002Z</time></trkpt><trkpt lat="45.763706805623066" lon="11.886016981660681"><ele>80.0</ele><time>2026-05-02T10:11:33.002Z</time></trkpt><trkpt lat="45.763734673438655" lon="11.886192672005642"><ele>80.0</ele><time>2026-05-02T10:11:35.002Z</time></trkpt><trkpt lat="45.76372140996719" lon="11.886355680183716"><ele>80.0</ele><time>2026-05-02T10:11:37.002Z</time></trkpt><trkpt lat="45.76370618903731" lon="11.88652351753872"><ele>80.0</ele><time>2026-05-02T10:11:39.002Z</time></trkpt><trkpt lat="45.76368121036034" lon="11.886690730765453"><ele>79.75</ele><time>2026-05-02T10:11:41.002Z</time></trkpt><trkpt lat="45.76366210144967" lon="11.886863014063119"><ele>79.5</ele><time>2026-05-02T10:11:43.002Z</time></trkpt><trkpt lat="45.76367118871793" lon="11.887033300591211"><ele>79.25</ele><time>2026-05-02T10:11:45.002Z</time></trkpt><trkpt lat="45.76367301612457" lon="11.887204905945138"><ele>79.0</ele><time>2026-05-02T10:11:47.003Z</time></trkpt><trkpt lat="45.76367143341561" lon="11.88735034493589"><ele>79.0</ele><time>2026-05-02T10:11:49.003Z</time></trkpt><trkpt lat="45.7637871580726" lon="11.88740253590486"><ele>79.0</ele><time>2026-05-02T10:11:50.003Z</time></trkpt><trkpt lat="45.76388852812082" lon="11.88747414262833"><ele>79.0</ele><time>2026-05-02T10:11:52.003Z</time></trkpt><trkpt lat="45.76400057848162" lon="11.887542614123552"><ele>79.0</ele><time>2026-05-02T10:11:54.003Z</time></trkpt><trkpt lat="45.764093156686904" lon="11.887591696479031"><ele>79.0</ele><time>2026-05-02T10:11:56.003Z</time></trkpt><trkpt lat="45.76419215399195" lon="11.887614241485732"><ele>79.0</ele><time>2026-05-02T10:11:58.003Z</time></trkpt><trkpt lat="45.764317288230856" lon="11.887578816084332"><ele>79.0</ele><time>2026-05-02T10:12:00.003Z</time></trkpt><trkpt lat="45.76438025639046" lon="11.887542102775678"><ele>79.0</ele><time>2026-05-02T10:12:01.003Z</time></trkpt><trkpt lat="45.76443751728091" lon="11.887499504360408"><ele>79.0</ele><time>2026-05-02T10:12:02.003Z</time></trkpt><trkpt lat="45.764533514484526" lon="11.887401121931573"><ele>79.25</ele><time>2026-05-02T10:12:04.003Z</time></trkpt><trkpt lat="45.76462849368199" lon="11.887315589438437"><ele>79.5</ele><time>2026-05-02T10:12:06.003Z</time></trkpt><trkpt lat="45.76472537262631" lon="11.887239928512578"><ele>79.75</ele><time>2026-05-02T10:12:08.003Z</time></trkpt><trkpt lat="45.7648356641927" lon="11.887202033112903"><ele>80.0</ele><time>2026-05-02T10:12:10.003Z</time></trkpt><trkpt lat="45.76494841225544" lon="11.887175344125387"><ele>80.0</ele><time>2026-05-02T10:12:12.003Z</time></trkpt><trkpt lat="45.76506572281574" lon="11.887176748686027"><ele>80.0</ele><time>2026-05-02T10:12:14.003Z</time></trkpt><trkpt lat="45.76518138779236" lon="11.887189579949897"><ele>80.0</ele><time>2026-05-02T10:12:15.999Z</time></trkpt><trkpt lat="45.765295346793366" lon="11.887225190598649"><ele>80.0</ele><time>2026-05-02T10:12:17.999Z</time></trkpt><trkpt lat="45.76540742203949" lon="11.887280596431307"><ele>79.75</ele><time>2026-05-02T10:12:19.999Z</time></trkpt><trkpt lat="45.765512239642774" lon="11.887346436429016"><ele>79.5</ele><time>2026-05-02T10:12:21.999Z</time></trkpt><trkpt lat="45.76561495996441" lon="11.88742578299438"><ele>79.25</ele><time>2026-05-02T10:12:23.999Z</time></trkpt><trkpt lat="45.765722376693866" lon="11.887497522738323"><ele>79.0</ele><time>2026-05-02T10:12:25.999Z</time></trkpt><trkpt lat="45.76582351030366" lon="11.887567086615297"><ele>79.0</ele><time>2026-05-02T10:12:27.999Z</time></trkpt><trkpt lat="45.76592618910169" lon="11.887638865414418"><ele>79.0</ele><time>2026-05-02T10:12:30Z</time></trkpt><trkpt lat="45.766033252227984" lon="11.887711291841413"><ele>79.0</ele><time>2026-05-02T10:12:32Z</time></trkpt><trkpt lat="45.76613820711817" lon="11.887779501371092"><ele>79.0</ele><time>2026-05-02T10:12:34Z</time></trkpt><trkpt lat="45.7662374705131" lon="11.887853878118817"><ele>79.25</ele><time>2026-05-02T10:12:36Z</time></trkpt><trkpt lat="45.766342434581645" lon="11.88792796913106"><ele>79.5</ele><time>2026-05-02T10:12:38Z</time></trkpt><trkpt lat="45.766448586201165" lon="11.887995848412366"><ele>79.75</ele><time>2026-05-02T10:12:40Z</time></trkpt><trkpt lat="45.76655688798923" lon="11.888063204788503"><ele>80.0</ele><time>2026-05-02T10:12:42Z</time></trkpt><trkpt lat="45.76665719943588" lon="11.888138161662118"><ele>80.0</ele><time>2026-05-02T10:12:44Z</time></trkpt><trkpt lat="45.7667649332528" lon="11.888191029714642"><ele>80.0</ele><time>2026-05-02T10:12:46Z</time></trkpt><trkpt lat="45.76687968616574" lon="11.8882126515656"><ele>80.0</ele><time>2026-05-02T10:12:48Z</time></trkpt><trkpt lat="45.76699084297452" lon="11.888243631401027"><ele>80.0</ele><time>2026-05-02T10:12:50Z</time></trkpt><trkpt lat="45.767108569316974" lon="11.888271995122434"><ele>80.25</ele><time>2026-05-02T10:12:52.001Z</time></trkpt><trkpt lat="45.76721779929808" lon="11.888315981958101"><ele>80.5</ele><time>2026-05-02T10:12:54.001Z</time></trkpt><trkpt lat="45.7673268248477" lon="11.888368240807898"><ele>80.75</ele><time>2026-05-02T10:12:56.001Z</time></trkpt><trkpt lat="45.76743616374195" lon="11.88841590373941"><ele>81.0</ele><time>2026-05-02T10:12:58.001Z</time></trkpt><trkpt lat="45.767550088924686" lon="11.888460926780125"><ele>81.0</ele><time>2026-05-02T10:13:00.001Z</time></trkpt><trkpt lat="45.767661536832044" lon="11.888508552994438"><ele>81.0</ele><time>2026-05-02T10:13:02.001Z</time></trkpt><trkpt lat="45.76777129093612" lon="11.888562859359956"><ele>81.0</ele><time>2026-05-02T10:13:04.001Z</time></trkpt><trkpt lat="45.76788623078843" lon="11.88861174299571"><ele>81.0</ele><time>2026-05-02T10:13:06.001Z</time></trkpt><trkpt lat="45.767998737769595" lon="11.888664772677014"><ele>81.25</ele><time>2026-05-02T10:13:08.001Z</time></trkpt><trkpt lat="45.76810941854605" lon="11.888713672593816"><ele>81.5</ele><time>2026-05-02T10:13:10.001Z</time></trkpt><trkpt lat="45.76822168061356" lon="11.888761711731654"><ele>81.75</ele><time>2026-05-02T10:13:12.001Z</time></trkpt><trkpt lat="45.76833197774092" lon="11.888811789216332"><ele>82.0</ele><time>2026-05-02T10:13:14.001Z</time></trkpt><trkpt lat="45.76844318014385" lon="11.888862359584854"><ele>82.0</ele><time>2026-05-02T10:13:16.001Z</time></trkpt><trkpt lat="45.76855292043885" lon="11.888914307632316"><ele>82.0</ele><time>2026-05-02T10:13:18.001Z</time></trkpt><trkpt lat="45.768663066521526" lon="11.888963533814515"><ele>82.0</ele><time>2026-05-02T10:13:20.001Z</time></trkpt><trkpt lat="45.768771383242985" lon="11.889014075955442"><ele>82.0</ele><time>2026-05-02T10:13:22.002Z</time></trkpt><trkpt lat="45.76888008434827" lon="11.889060909735441"><ele>82.0</ele><time>2026-05-02T10:13:24.002Z</time></trkpt><trkpt lat="45.768987196913585" lon="11.889108974889911"><ele>82.0</ele><time>2026-05-02T10:13:26.002Z</time></trkpt><trkpt lat="45.769090877918316" lon="11.889178136366127"><ele>82.0</ele><time>2026-05-02T10:13:28.002Z</time></trkpt><trkpt lat="45.76918577077449" lon="11.889266198375077"><ele>82.0</ele><time>2026-05-02T10:13:30.002Z</time></trkpt><trkpt lat="45.76926528706113" lon="11.88938574436589"><ele>82.25</ele><time>2026-05-02T10:13:32.002Z</time></trkpt><trkpt lat="45.76931647999888" lon="11.889536143909082"><ele>82.5</ele><time>2026-05-02T10:13:34.002Z</time></trkpt><trkpt lat="45.769332413222635" lon="11.889705665899603"><ele>82.75</ele><time>2026-05-02T10:13:36.002Z</time></trkpt><trkpt lat="45.76933736870182" lon="11.88987614950488"><ele>83.0</ele><time>2026-05-02T10:13:38.002Z</time></trkpt><trkpt lat="45.769347661351226" lon="11.890041608699898"><ele>82.75</ele><time>2026-05-02T10:13:40.002Z</time></trkpt><trkpt lat="45.76935538591814" lon="11.890201824635305"><ele>82.5</ele><time>2026-05-02T10:13:42.002Z</time></trkpt><trkpt lat="45.76938660496211" lon="11.890354141788452"><ele>82.25</ele><time>2026-05-02T10:13:44.002Z</time></trkpt><trkpt lat="45.76944421623177" lon="11.890494844130473"><ele>82.0</ele><time>2026-05-02T10:13:46.002Z</time></trkpt><trkpt lat="45.76952528934505" lon="11.890608006477393"><ele>82.0</ele><time>2026-05-02T10:13:48.002Z</time></trkpt><trkpt lat="45.76962021241146" lon="11.890684690596883"><ele>82.0</ele><time>2026-05-02T10:13:50.002Z</time></trkpt><trkpt lat="45.76972665416265" lon="11.890746016200525"><ele>82.0</ele><time>2026-05-02T10:13:52.002Z</time></trkpt><trkpt lat="45.769828515710756" lon="11.890817944210596"><ele>82.0</ele><time>2026-05-02T10:13:54.003Z</time></trkpt><trkpt lat="45.76993217435818" lon="11.890886588323653"><ele>82.0</ele><time>2026-05-02T10:13:56.003Z</time></trkpt><trkpt lat="45.77002773696326" lon="11.890973941003876"><ele>82.0</ele><time>2026-05-02T10:13:58.003Z</time></trkpt><trkpt lat="45.77012441883688" lon="11.891063567596905"><ele>82.0</ele><time>2026-05-02T10:14:00.003Z</time></trkpt><trkpt lat="45.77021215057685" lon="11.89116785154318"><ele>82.0</ele><time>2026-05-02T10:14:02.003Z</time></trkpt><trkpt lat="45.77030011343482" lon="11.891273232888809"><ele>82.0</ele><time>2026-05-02T10:14:04.003Z</time></trkpt><trkpt lat="45.77038433387225" lon="11.891376501786615"><ele>82.0</ele><time>2026-05-02T10:14:06.003Z</time></trkpt><trkpt lat="45.770472247145236" lon="11.891480894902653"><ele>82.0</ele><time>2026-05-02T10:14:08.003Z</time></trkpt><trkpt lat="45.77057079931937" lon="11.89156277210093"><ele>82.0</ele><time>2026-05-02T10:14:10.003Z</time></trkpt><trkpt lat="45.770628024085255" lon="11.891603272648855"><ele>82.0</ele><time>2026-05-02T10:14:11.003Z</time></trkpt><trkpt lat="45.77073962207142" lon="11.891668029343451"><ele>82.0</ele><time>2026-05-02T10:14:13.003Z</time></trkpt><trkpt lat="45.77080005558747" lon="11.891698072329492"><ele>82.0</ele><time>2026-05-02T10:14:14.003Z</time></trkpt><trkpt lat="45.77090402632949" lon="11.89176361333539"><ele>82.0</ele><time>2026-05-02T10:14:16.003Z</time></trkpt><trkpt lat="45.77101450656303" lon="11.891828520248316"><ele>82.0</ele><time>2026-05-02T10:14:18.003Z</time></trkpt><trkpt lat="45.77112787423343" lon="11.8918900494606"><ele>82.0</ele><time>2026-05-02T10:14:20.003Z</time></trkpt><trkpt lat="45.77123854104636" lon="11.891957680707002"><ele>82.19999999999999</ele><time>2026-05-02T10:14:21.999Z</time></trkpt><trkpt lat="45.7713492470303" lon="11.892024834762777"><ele>82.4</ele><time>2026-05-02T10:14:23.999Z</time></trkpt><trkpt lat="45.77146312795856" lon="11.892069086378037"><ele>82.6</ele><time>2026-05-02T10:14:26Z</time></trkpt><trkpt lat="45.77157878763221" lon="11.892087024744628"><ele>82.80000000000001</ele><time>2026-05-02T10:14:28Z</time></trkpt><trkpt lat="45.771642070646884" lon="11.892085666152566"><ele>83.0</ele><time>2026-05-02T10:14:29Z</time></trkpt><trkpt lat="45.77175986162407" lon="11.8920960593312"><ele>83.25</ele><time>2026-05-02T10:14:31Z</time></trkpt><trkpt lat="45.77187612835681" lon="11.892102210613844"><ele>83.5</ele><time>2026-05-02T10:14:33Z</time></trkpt><trkpt lat="45.77199146976809" lon="11.89210345637204"><ele>83.75</ele><time>2026-05-02T10:14:35Z</time></trkpt><trkpt lat="45.772110761891355" lon="11.892108665652643"><ele>84.0</ele><time>2026-05-02T10:14:37Z</time></trkpt><trkpt lat="45.77222498193254" lon="11.892117656419646"><ele>84.0</ele><time>2026-05-02T10:14:39Z</time></trkpt><trkpt lat="45.77234311701147" lon="11.892133664243252"><ele>84.0</ele><time>2026-05-02T10:14:41Z</time></trkpt><trkpt lat="45.77246049604375" lon="11.892176424815144"><ele>84.0</ele><time>2026-05-02T10:14:43Z</time></trkpt><trkpt lat="45.77256867119404" lon="11.892248288068387"><ele>84.0</ele><time>2026-05-02T10:14:45Z</time></trkpt><trkpt lat="45.77267044968934" lon="11.892331388543301"><ele>84.0</ele><time>2026-05-02T10:14:47Z</time></trkpt><trkpt lat="45.77276851306824" lon="11.892414888609359"><ele>84.0</ele><time>2026-05-02T10:14:49Z</time></trkpt><trkpt lat="45.772865549826875" lon="11.892513152291839"><ele>84.0</ele><time>2026-05-02T10:14:51Z</time></trkpt><trkpt lat="45.7729622188641" lon="11.89261415536374"><ele>84.0</ele><time>2026-05-02T10:14:53.001Z</time></trkpt><trkpt lat="45.77305943002709" lon="11.892722110267067"><ele>84.0</ele><time>2026-05-02T10:14:55.001Z</time></trkpt><trkpt lat="45.773151512069525" lon="11.892831256525806"><ele>84.0</ele><time>2026-05-02T10:14:57.001Z</time></trkpt><trkpt lat="45.77324138831265" lon="11.892955729249662"><ele>84.0</ele><time>2026-05-02T10:14:59.001Z</time></trkpt><trkpt lat="45.77332425989796" lon="11.893093983140004"><ele>84.0</ele><time>2026-05-02T10:15:01.001Z</time></trkpt><trkpt lat="45.77339435049034" lon="11.893243465923563"><ele>84.0</ele><time>2026-05-02T10:15:03.001Z</time></trkpt><trkpt lat="45.77341717985012" lon="11.893329382111906"><ele>84.0</ele><time>2026-05-02T10:15:04.001Z</time></trkpt><trkpt lat="45.7734331984912" lon="11.893416760878528"><ele>84.0</ele><time>2026-05-02T10:15:05.001Z</time></trkpt><trkpt lat="45.77344429301644" lon="11.89350755306619"><ele>84.0</ele><time>2026-05-02T10:15:06.001Z</time></trkpt><trkpt lat="45.77345880187595" lon="11.893645453696713"><ele>84.0</ele><time>2026-05-02T10:15:08.001Z</time></trkpt><trkpt lat="45.77349628096599" lon="11.893808044061268"><ele>84.0</ele><time>2026-05-02T10:15:10.001Z</time></trkpt><trkpt lat="45.77351572676056" lon="11.893951959585511"><ele>84.2</ele><time>2026-05-02T10:15:12.001Z</time></trkpt><trkpt lat="45.77353931383255" lon="11.894072366609427"><ele>84.4</ele><time>2026-05-02T10:15:14.001Z</time></trkpt><trkpt lat="45.773616701624654" lon="11.894134760455792"><ele>84.6</ele><time>2026-05-02T10:15:16.001Z</time></trkpt><trkpt lat="45.773714721999745" lon="11.894182823868807"><ele>84.8</ele><time>2026-05-02T10:15:18.001Z</time></trkpt><trkpt lat="45.77380529766231" lon="11.894272204083737"><ele>85.0</ele><time>2026-05-02T10:15:20.001Z</time></trkpt><trkpt lat="45.773905663720754" lon="11.89436157713752"><ele>85.0</ele><time>2026-05-02T10:15:22.001Z</time></trkpt><trkpt lat="45.77396025508355" lon="11.894407390191008"><ele>85.0</ele><time>2026-05-02T10:15:23.002Z</time></trkpt><trkpt lat="45.774060988393614" lon="11.894494127070324"><ele>85.0</ele><time>2026-05-02T10:15:25.002Z</time></trkpt><trkpt lat="45.774165205825405" lon="11.894580134125048"><ele>85.0</ele><time>2026-05-02T10:15:27.002Z</time></trkpt><trkpt lat="45.77426781760236" lon="11.894650167626185"><ele>85.0</ele><time>2026-05-02T10:15:29.002Z</time></trkpt><trkpt lat="45.77437859022644" lon="11.894671251360393"><ele>84.8</ele><time>2026-05-02T10:15:31.002Z</time></trkpt><trkpt lat="45.77448247329583" lon="11.894632233724261"><ele>84.6</ele><time>2026-05-02T10:15:33.002Z</time></trkpt><trkpt lat="45.77457850219267" lon="11.894593692859495"><ele>84.4</ele><time>2026-05-02T10:15:35.002Z</time></trkpt><trkpt lat="45.77467613844898" lon="11.894598455330485"><ele>84.2</ele><time>2026-05-02T10:15:37.002Z</time></trkpt><trkpt lat="45.774779389135816" lon="11.894635103397892"><ele>84.0</ele><time>2026-05-02T10:15:39.002Z</time></trkpt><trkpt lat="45.77488322944757" lon="11.894689460491438"><ele>84.0</ele><time>2026-05-02T10:15:41.002Z</time></trkpt><trkpt lat="45.7749883226328" lon="11.894746552213581"><ele>84.0</ele><time>2026-05-02T10:15:43.002Z</time></trkpt><trkpt lat="45.775094039665305" lon="11.894798490857847"><ele>84.0</ele><time>2026-05-02T10:15:45.002Z</time></trkpt><trkpt lat="45.77520656270713" lon="11.894824560150198"><ele>84.0</ele><time>2026-05-02T10:15:47.002Z</time></trkpt><trkpt lat="45.77532251489026" lon="11.894845225820838"><ele>83.25</ele><time>2026-05-02T10:15:49.002Z</time></trkpt><trkpt lat="45.775434507736826" lon="11.894861361791257"><ele>82.5</ele><time>2026-05-02T10:15:51.002Z</time></trkpt><trkpt lat="45.77554487628865" lon="11.894883749848173"><ele>81.75</ele><time>2026-05-02T10:15:53.002Z</time></trkpt><trkpt lat="45.7756613165539" lon="11.894914692222034"><ele>81.0</ele><time>2026-05-02T10:15:55.002Z</time></trkpt><trkpt lat="45.77577414317179" lon="11.894963255597215"><ele>81.0</ele><time>2026-05-02T10:15:57.003Z</time></trkpt><trkpt lat="45.77588474724485" lon="11.895034763933843"><ele>81.0</ele><time>2026-05-02T10:15:59.003Z</time></trkpt><trkpt lat="45.77597820546169" lon="11.895150084093912"><ele>81.0</ele><time>2026-05-02T10:16:01.003Z</time></trkpt><trkpt lat="45.77602038749698" lon="11.895218550896548"><ele>81.0</ele><time>2026-05-02T10:16:02.003Z</time></trkpt><trkpt lat="45.776086847680276" lon="11.89535849551196"><ele>81.0</ele><time>2026-05-02T10:16:04.003Z</time></trkpt><trkpt lat="45.77615955967332" lon="11.89548658002292"><ele>81.75</ele><time>2026-05-02T10:16:06.003Z</time></trkpt><trkpt lat="45.776270313874456" lon="11.895554633445313"><ele>82.5</ele><time>2026-05-02T10:16:08.003Z</time></trkpt><trkpt lat="45.776385190990844" lon="11.89559263663266"><ele>83.25</ele><time>2026-05-02T10:16:10.003Z</time></trkpt><trkpt lat="45.77650941637523" lon="11.895602083302531"><ele>84.0</ele><time>2026-05-02T10:16:12.003Z</time></trkpt><trkpt lat="45.77662815150368" lon="11.895635709230184"><ele>84.0</ele><time>2026-05-02T10:16:14.003Z</time></trkpt><trkpt lat="45.77674808512014" lon="11.895663064853176"><ele>84.0</ele><time>2026-05-02T10:16:16.003Z</time></trkpt><trkpt lat="45.77686489731114" lon="11.895684311299568"><ele>84.0</ele><time>2026-05-02T10:16:18.003Z</time></trkpt><trkpt lat="45.77697738971224" lon="11.895704999146377"><ele>84.0</ele><time>2026-05-02T10:16:20.003Z</time></trkpt><trkpt lat="45.777092064994584" lon="11.895718851734694"><ele>84.5</ele><time>2026-05-02T10:16:22.003Z</time></trkpt><trkpt lat="45.77720688008786" lon="11.89573847547785"><ele>85.0</ele><time>2026-05-02T10:16:24.003Z</time></trkpt><trkpt lat="45.7773219538989" lon="11.895761317816454"><ele>85.5</ele><time>2026-05-02T10:16:26.003Z</time></trkpt><trkpt lat="45.77743153493653" lon="11.895797013665398"><ele>86.0</ele><time>2026-05-02T10:16:28Z</time></trkpt><trkpt lat="45.77754264554541" lon="11.895812553076928"><ele>86.0</ele><time>2026-05-02T10:16:30Z</time></trkpt><trkpt lat="45.77765893941054" lon="11.895815975736259"><ele>86.0</ele><time>2026-05-02T10:16:32Z</time></trkpt><trkpt lat="45.77777071110815" lon="11.895824492975837"><ele>86.0</ele><time>2026-05-02T10:16:34Z</time></trkpt><trkpt lat="45.7778361287294" lon="11.895831979971396"><ele>86.0</ele><time>2026-05-02T10:16:35Z</time></trkpt><trkpt lat="45.77794615393005" lon="11.895840771438234"><ele>86.0</ele><time>2026-05-02T10:16:37Z</time></trkpt><trkpt lat="45.77805994171659" lon="11.895853427556835"><ele>85.75</ele><time>2026-05-02T10:16:39Z</time></trkpt><trkpt lat="45.77817695931244" lon="11.895866585178993"><ele>85.5</ele><time>2026-05-02T10:16:41Z</time></trkpt><trkpt lat="45.77828671392387" lon="11.895887752447857"><ele>85.25</ele><time>2026-05-02T10:16:43Z</time></trkpt><trkpt lat="45.778408845875525" lon="11.895903689824612"><ele>85.0</ele><time>2026-05-02T10:16:45Z</time></trkpt><trkpt lat="45.778527472818354" lon="11.895921193828139"><ele>85.5</ele><time>2026-05-02T10:16:47Z</time></trkpt><trkpt lat="45.77864260582199" lon="11.895936421531049"><ele>86.0</ele><time>2026-05-02T10:16:49Z</time></trkpt><trkpt lat="45.77875788189876" lon="11.895955000460537"><ele>86.5</ele><time>2026-05-02T10:16:51Z</time></trkpt><trkpt lat="45.77887221210085" lon="11.895972440468276"><ele>87.0</ele><time>2026-05-02T10:16:53Z</time></trkpt><trkpt lat="45.77898109383717" lon="11.895979704943509"><ele>87.0</ele><time>2026-05-02T10:16:55Z</time></trkpt><trkpt lat="45.77908119239528" lon="11.896001610874912"><ele>87.0</ele><time>2026-05-02T10:16:57Z</time></trkpt><trkpt lat="45.779174649973704" lon="11.896008584887062"><ele>87.0</ele><time>2026-05-02T10:16:59.001Z</time></trkpt><trkpt lat="45.77924527897579" lon="11.896009669429608"><ele>87.0</ele><time>2026-05-02T10:17:01.001Z</time></trkpt><trkpt lat="45.779320032445405" lon="11.896020892641635"><ele>87.0</ele><time>2026-05-02T10:17:03.001Z</time></trkpt><trkpt lat="45.77940291155356" lon="11.896074075419616"><ele>87.0</ele><time>2026-05-02T10:17:05.001Z</time></trkpt><trkpt lat="45.77946503107828" lon="11.896200624242194"><ele>87.0</ele><time>2026-05-02T10:17:07.001Z</time></trkpt><trkpt lat="45.779502326200344" lon="11.896336475028914"><ele>87.0</ele><time>2026-05-02T10:17:09.001Z</time></trkpt><trkpt lat="45.77956066388656" lon="11.896481420518628"><ele>87.0</ele><time>2026-05-02T10:17:11.001Z</time></trkpt><trkpt lat="45.77960592936691" lon="11.8966389423283"><ele>87.0</ele><time>2026-05-02T10:17:13.001Z</time></trkpt><trkpt lat="45.779660163265156" lon="11.89679599196194"><ele>87.0</ele><time>2026-05-02T10:17:15.001Z</time></trkpt><trkpt lat="45.77971327506176" lon="11.896943471024228"><ele>87.0</ele><time>2026-05-02T10:17:17.001Z</time></trkpt><trkpt lat="45.77975891564751" lon="11.897104204240275"><ele>87.0</ele><time>2026-05-02T10:17:19.001Z</time></trkpt><trkpt lat="45.7798074253363" lon="11.897258457907098"><ele>87.0</ele><time>2026-05-02T10:17:21.001Z</time></trkpt><trkpt lat="45.779853520076514" lon="11.897418974960056"><ele>87.0</ele><time>2026-05-02T10:17:23.001Z</time></trkpt><trkpt lat="45.77988812907416" lon="11.897582341991233"><ele>87.0</ele><time>2026-05-02T10:17:25.001Z</time></trkpt><trkpt lat="45.77991938682706" lon="11.89774856937479"><ele>87.0</ele><time>2026-05-02T10:17:27.001Z</time></trkpt><trkpt lat="45.77995133590665" lon="11.897908618139166"><ele>87.0</ele><time>2026-05-02T10:17:29.001Z</time></trkpt><trkpt lat="45.77997754263216" lon="11.898067891866225"><ele>87.0</ele><time>2026-05-02T10:17:31.001Z</time></trkpt><trkpt lat="45.78001277252949" lon="11.898230901986665"><ele>87.0</ele><time>2026-05-02T10:17:33.002Z</time></trkpt><trkpt lat="45.7800470708906" lon="11.89838706164594"><ele>87.0</ele><time>2026-05-02T10:17:35.002Z</time></trkpt><trkpt lat="45.78009143742736" lon="11.898539084441204"><ele>87.0</ele><time>2026-05-02T10:17:37.002Z</time></trkpt><trkpt lat="45.78014823001044" lon="11.898687162768477"><ele>87.0</ele><time>2026-05-02T10:17:39.002Z</time></trkpt><trkpt lat="45.78021162083174" lon="11.898828952740828"><ele>87.0</ele><time>2026-05-02T10:17:41.002Z</time></trkpt><trkpt lat="45.780274805418905" lon="11.898960049897052"><ele>87.0</ele><time>2026-05-02T10:17:43.002Z</time></trkpt><trkpt lat="45.78031449144451" lon="11.899033663484248"><ele>87.0</ele><time>2026-05-02T10:17:44.002Z</time></trkpt><trkpt lat="45.78038646531755" lon="11.899162615642545"><ele>87.0</ele><time>2026-05-02T10:17:46.002Z</time></trkpt><trkpt lat="45.78045943507451" lon="11.899297095895012"><ele>87.19999999999999</ele><time>2026-05-02T10:17:48.002Z</time></trkpt><trkpt lat="45.78053587947145" lon="11.899431658115335"><ele>87.4</ele><time>2026-05-02T10:17:50.002Z</time></trkpt><trkpt lat="45.78060768793961" lon="11.89956828332508"><ele>87.6</ele><time>2026-05-02T10:17:52.002Z</time></trkpt><trkpt lat="45.780670151070396" lon="11.899720171877705"><ele>87.80000000000001</ele><time>2026-05-02T10:17:54.002Z</time></trkpt><trkpt lat="45.780694141080374" lon="11.899804712152992"><ele>88.0</ele><time>2026-05-02T10:17:55.002Z</time></trkpt><trkpt lat="45.780722630783714" lon="11.899981326934027"><ele>88.0</ele><time>2026-05-02T10:17:57.002Z</time></trkpt><trkpt lat="45.78073416067851" lon="11.900153987684275"><ele>88.0</ele><time>2026-05-02T10:17:59.002Z</time></trkpt><trkpt lat="45.78073432830303" lon="11.90025002324412"><ele>88.0</ele><time>2026-05-02T10:18:00.002Z</time></trkpt><trkpt lat="45.78074295467582" lon="11.90042309724761"><ele>88.0</ele><time>2026-05-02T10:18:02.002Z</time></trkpt><trkpt lat="45.78076093773498" lon="11.90059136986712"><ele>88.0</ele><time>2026-05-02T10:18:04.002Z</time></trkpt><trkpt lat="45.78079473883455" lon="11.90075365904286"><ele>88.0</ele><time>2026-05-02T10:18:06.003Z</time></trkpt><trkpt lat="45.780816925550944" lon="11.900839139910657"><ele>88.0</ele><time>2026-05-02T10:18:07.003Z</time></trkpt><trkpt lat="45.78086443173549" lon="11.900987886596642"><ele>88.0</ele><time>2026-05-02T10:18:09.003Z</time></trkpt><trkpt lat="45.78093438034912" lon="11.901125805114873"><ele>88.0</ele><time>2026-05-02T10:18:11.003Z</time></trkpt><trkpt lat="45.78099839846581" lon="11.901196606219095"><ele>88.0</ele><time>2026-05-02T10:18:12.003Z</time></trkpt><trkpt lat="45.781020580663196" lon="11.901334783856234"><ele>88.0</ele><time>2026-05-02T10:18:14.003Z</time></trkpt><trkpt lat="45.78108299748047" lon="11.90148260895594"><ele>88.0</ele><time>2026-05-02T10:18:16.003Z</time></trkpt><trkpt lat="45.78114930261915" lon="11.901616320460317"><ele>88.0</ele><time>2026-05-02T10:18:18.003Z</time></trkpt><trkpt lat="45.781229940679594" lon="11.901736552727114"><ele>88.0</ele><time>2026-05-02T10:18:20.003Z</time></trkpt><trkpt lat="45.781291968718676" lon="11.9017894537186"><ele>88.0</ele><time>2026-05-02T10:18:21.003Z</time></trkpt><trkpt lat="45.78140503047158" lon="11.901818890997575"><ele>88.0</ele><time>2026-05-02T10:18:23.003Z</time></trkpt><trkpt lat="45.78152005280087" lon="11.90183020657005"><ele>88.0</ele><time>2026-05-02T10:18:25.003Z</time></trkpt><trkpt lat="45.78163812796477" lon="11.901847127466077"><ele>88.0</ele><time>2026-05-02T10:18:27.003Z</time></trkpt><trkpt lat="45.781755801587884" lon="11.901864351264733"><ele>88.0</ele><time>2026-05-02T10:18:29.003Z</time></trkpt><trkpt lat="45.781870818681035" lon="11.90188024401877"><ele>88.0</ele><time>2026-05-02T10:18:31.003Z</time></trkpt><trkpt lat="45.78198976649031" lon="11.90189009062819"><ele>88.0</ele><time>2026-05-02T10:18:33Z</time></trkpt><trkpt lat="45.78210842432675" lon="11.901908502184018"><ele>88.0</ele><time>2026-05-02T10:18:35Z</time></trkpt><trkpt lat="45.78222328181348" lon="11.901924088657411"><ele>88.0</ele><time>2026-05-02T10:18:37Z</time></trkpt><trkpt lat="45.78233820351072" lon="11.901930107195229"><ele>88.0</ele><time>2026-05-02T10:18:39Z</time></trkpt><trkpt lat="45.78245319182897" lon="11.901919843501249"><ele>88.0</ele><time>2026-05-02T10:18:41Z</time></trkpt><trkpt lat="45.782559963095835" lon="11.901939654738515"><ele>88.0</ele><time>2026-05-02T10:18:43Z</time></trkpt><trkpt lat="45.782676239192824" lon="11.901962743544734"><ele>88.0</ele><time>2026-05-02T10:18:45Z</time></trkpt><trkpt lat="45.7827971098519" lon="11.901983105098628"><ele>88.5</ele><time>2026-05-02T10:18:47Z</time></trkpt><trkpt lat="45.782913961626015" lon="11.901975259297119"><ele>89.0</ele><time>2026-05-02T10:18:49Z</time></trkpt><trkpt lat="45.783029769513384" lon="11.901954662512697"><ele>89.5</ele><time>2026-05-02T10:18:51Z</time></trkpt><trkpt lat="45.78315324378586" lon="11.90192747686416"><ele>90.0</ele><time>2026-05-02T10:18:53Z</time></trkpt><trkpt lat="45.783264776939276" lon="11.901893231945895"><ele>90.0</ele><time>2026-05-02T10:18:55Z</time></trkpt><trkpt lat="45.78337823586459" lon="11.901862189493581"><ele>90.0</ele><time>2026-05-02T10:18:57Z</time></trkpt><trkpt lat="45.78349591784047" lon="11.901846309341087"><ele>90.0</ele><time>2026-05-02T10:18:59Z</time></trkpt><trkpt lat="45.78361217109726" lon="11.901846166110051"><ele>90.0</ele><time>2026-05-02T10:19:01Z</time></trkpt><trkpt lat="45.78372733310137" lon="11.901873755833716"><ele>90.0</ele><time>2026-05-02T10:19:03Z</time></trkpt><trkpt lat="45.78383869166708" lon="11.901917102783854"><ele>90.0</ele><time>2026-05-02T10:19:05.001Z</time></trkpt><trkpt lat="45.78394948295105" lon="11.901971297542387"><ele>90.0</ele><time>2026-05-02T10:19:07.001Z</time></trkpt><trkpt lat="45.784069770530934" lon="11.902012166122045"><ele>90.0</ele><time>2026-05-02T10:19:09.001Z</time></trkpt><trkpt lat="45.78417764459359" lon="11.902061483194505"><ele>90.0</ele><time>2026-05-02T10:19:11.001Z</time></trkpt><trkpt lat="45.78428584830736" lon="11.902103317046766"><ele>90.0</ele><time>2026-05-02T10:19:13.001Z</time></trkpt><trkpt lat="45.7843993797038" lon="11.902153554855884"><ele>90.0</ele><time>2026-05-02T10:19:15.001Z</time></trkpt><trkpt lat="45.78450658218048" lon="11.902197491919175"><ele>90.0</ele><time>2026-05-02T10:19:17.001Z</time></trkpt><trkpt lat="45.784619138494804" lon="11.902241385441185"><ele>90.5</ele><time>2026-05-02T10:19:19.001Z</time></trkpt><trkpt lat="45.78473248054637" lon="11.902277706141142"><ele>91.0</ele><time>2026-05-02T10:19:21.001Z</time></trkpt><trkpt lat="45.78484532822046" lon="11.902323437059684"><ele>91.5</ele><time>2026-05-02T10:19:23.001Z</time></trkpt><trkpt lat="45.78495686226621" lon="11.902365745026321"><ele>92.0</ele><time>2026-05-02T10:19:25.001Z</time></trkpt><trkpt lat="45.785070042340834" lon="11.902409392908472"><ele>92.5</ele><time>2026-05-02T10:19:27.001Z</time></trkpt><trkpt lat="45.78518037368986" lon="11.90245927157694"><ele>93.0</ele><time>2026-05-02T10:19:29.001Z</time></trkpt><trkpt lat="45.78529064690068" lon="11.902499521217898"><ele>93.5</ele><time>2026-05-02T10:19:31.001Z</time></trkpt><trkpt lat="45.785401133902646" lon="11.902546080557103"><ele>94.0</ele><time>2026-05-02T10:19:33.001Z</time></trkpt><trkpt lat="45.78551292487334" lon="11.90260201126539"><ele>94.0</ele><time>2026-05-02T10:19:35.001Z</time></trkpt><trkpt lat="45.78562280483655" lon="11.902648130882367"><ele>94.0</ele><time>2026-05-02T10:19:37.002Z</time></trkpt><trkpt lat="45.7857321912712" lon="11.90269335123364"><ele>94.0</ele><time>2026-05-02T10:19:39.002Z</time></trkpt><trkpt lat="45.78583957321602" lon="11.902744629188469"><ele>94.0</ele><time>2026-05-02T10:19:41.002Z</time></trkpt><trkpt lat="45.78594967609995" lon="11.902790090769852"><ele>93.75</ele><time>2026-05-02T10:19:43.002Z</time></trkpt><trkpt lat="45.78605654321974" lon="11.902840333313137"><ele>93.5</ele><time>2026-05-02T10:19:45.002Z</time></trkpt><trkpt lat="45.78616742380133" lon="11.902887661550634"><ele>93.25</ele><time>2026-05-02T10:19:47.002Z</time></trkpt><trkpt lat="45.78627893616012" lon="11.902943115429196"><ele>93.0</ele><time>2026-05-02T10:19:49.002Z</time></trkpt><trkpt lat="45.78638400599918" lon="11.903017320448992"><ele>93.0</ele><time>2026-05-02T10:19:51.002Z</time></trkpt><trkpt lat="45.78647467695345" lon="11.903118979482215"><ele>93.0</ele><time>2026-05-02T10:19:53.002Z</time></trkpt><trkpt lat="45.7865532455488" lon="11.903244540879841"><ele>93.0</ele><time>2026-05-02T10:19:55.002Z</time></trkpt><trkpt lat="45.78662259278083" lon="11.903377875094078"><ele>93.0</ele><time>2026-05-02T10:19:57.002Z</time></trkpt><trkpt lat="45.78666574949388" lon="11.903529794166372"><ele>93.25</ele><time>2026-05-02T10:19:59.002Z</time></trkpt><trkpt lat="45.78668219739831" lon="11.903692534678397"><ele>93.5</ele><time>2026-05-02T10:20:01.002Z</time></trkpt><trkpt lat="45.78668323301352" lon="11.903856249664022"><ele>93.75</ele><time>2026-05-02T10:20:03.002Z</time></trkpt><trkpt lat="45.78667840023909" lon="11.904015868839325"><ele>94.0</ele><time>2026-05-02T10:20:05.002Z</time></trkpt><trkpt lat="45.786688240949864" lon="11.904173210402146"><ele>94.2</ele><time>2026-05-02T10:20:07.002Z</time></trkpt><trkpt lat="45.78670579477483" lon="11.904323888882821"><ele>94.4</ele><time>2026-05-02T10:20:09.002Z</time></trkpt><trkpt lat="45.78674374569279" lon="11.904470113929719"><ele>94.6</ele><time>2026-05-02T10:20:11.003Z</time></trkpt><trkpt lat="45.78678776626937" lon="11.904608219485446"><ele>94.8</ele><time>2026-05-02T10:20:13.003Z</time></trkpt><trkpt lat="45.78683183450506" lon="11.904745258541784"><ele>95.0</ele><time>2026-05-02T10:20:15.003Z</time></trkpt><trkpt lat="45.78689021747326" lon="11.90487818325861"><ele>95.2</ele><time>2026-05-02T10:20:17.003Z</time></trkpt><trkpt lat="45.78694842748482" lon="11.905010039190204"><ele>95.4</ele><time>2026-05-02T10:20:19.003Z</time></trkpt><trkpt lat="45.78700956191747" lon="11.90513868647397"><ele>95.6</ele><time>2026-05-02T10:20:21.003Z</time></trkpt><trkpt lat="45.787073475588834" lon="11.90526576257331"><ele>95.8</ele><time>2026-05-02T10:20:23.003Z</time></trkpt><trkpt lat="45.78714329038139" lon="11.905386386667738"><ele>96.0</ele><time>2026-05-02T10:20:25.003Z</time></trkpt><trkpt lat="45.78721500994221" lon="11.905508905112669"><ele>96.4</ele><time>2026-05-02T10:20:27.003Z</time></trkpt><trkpt lat="45.78728175339442" lon="11.905633857423934"><ele>96.8</ele><time>2026-05-02T10:20:29.003Z</time></trkpt><trkpt lat="45.78734784523861" lon="11.905750516752365"><ele>97.2</ele><time>2026-05-02T10:20:31.003Z</time></trkpt><trkpt lat="45.787413039250254" lon="11.90587242178825"><ele>97.60000000000001</ele><time>2026-05-02T10:20:33.003Z</time></trkpt><trkpt lat="45.78747665292512" lon="11.905993956742696"><ele>98.0</ele><time>2026-05-02T10:20:35.003Z</time></trkpt><trkpt lat="45.787540569730254" lon="11.906108865106937"><ele>98.33333333333333</ele><time>2026-05-02T10:20:37.003Z</time></trkpt><trkpt lat="45.787596281576164" lon="11.906214084030822"><ele>98.66666666666666</ele><time>2026-05-02T10:20:39Z</time></trkpt><trkpt lat="45.787648103511124" lon="11.906300576054477"><ele>99.0</ele><time>2026-05-02T10:20:41Z</time></trkpt><trkpt lat="45.78767926736534" lon="11.90638655268126"><ele>99.33333333333334</ele><time>2026-05-02T10:20:43Z</time></trkpt><trkpt lat="45.78772666752829" lon="11.906471583295094"><ele>99.66666666666667</ele><time>2026-05-02T10:20:45Z</time></trkpt><trkpt lat="45.78776972825992" lon="11.906548024782065"><ele>100.0</ele><time>2026-05-02T10:20:47Z</time></trkpt><trkpt lat="45.78781160552058" lon="11.906630468430908"><ele>100.66666666666667</ele><time>2026-05-02T10:20:50Z</time></trkpt><trkpt lat="45.78788064747119" lon="11.90663647175787"><ele>101.33333333333334</ele><time>2026-05-02T10:20:52Z</time></trkpt><trkpt lat="45.7879479942174" lon="11.906599129006219"><ele>102.0</ele><time>2026-05-02T10:20:54Z</time></trkpt><trkpt lat="45.78802605125464" lon="11.906586062257935"><ele>102.66666666666666</ele><time>2026-05-02T10:20:56Z</time></trkpt><trkpt lat="45.788106633654145" lon="11.906573063766963"><ele>103.33333333333333</ele><time>2026-05-02T10:20:58Z</time></trkpt><trkpt lat="45.78819046459788" lon="11.906567572795993"><ele>104.0</ele><time>2026-05-02T10:21:00Z</time></trkpt><trkpt lat="45.788257958975045" lon="11.90657112497036"><ele>103.99999999999999</ele><time>2026-05-02T10:21:02Z</time></trkpt><trkpt lat="45.78833690678989" lon="11.906569185015785"><ele>104.0</ele><time>2026-05-02T10:21:05Z</time></trkpt><trkpt lat="45.78841528997136" lon="11.906571347453765"><ele>104.0</ele><time>2026-05-02T10:21:08Z</time></trkpt><trkpt lat="45.78849864378023" lon="11.906573582949608"><ele>104.0</ele><time>2026-05-02T10:21:11.001Z</time></trkpt><trkpt lat="45.78858714561942" lon="11.90656924983529"><ele>103.99999999999999</ele><time>2026-05-02T10:21:14.001Z</time></trkpt><trkpt lat="45.788650546453766" lon="11.90655368589901"><ele>104.0</ele><time>2026-05-02T10:21:16.001Z</time></trkpt><trkpt lat="45.788704441169315" lon="11.906497604572008"><ele>103.99999999999999</ele><time>2026-05-02T10:21:19.001Z</time></trkpt><trkpt lat="45.788770775462176" lon="11.906522128766268"><ele>104.0</ele><time>2026-05-02T10:21:23.001Z</time></trkpt><trkpt lat="45.788810401143756" lon="11.906638905875887"><ele>104.0</ele><time>2026-05-02T10:21:26.001Z</time></trkpt><trkpt lat="45.78889405747665" lon="11.906639620368722"><ele>104.0</ele><time>2026-05-02T10:21:29.001Z</time></trkpt><trkpt lat="45.78895380016273" lon="11.906686668192293"><ele>103.99999999999999</ele><time>2026-05-02T10:21:31.001Z</time></trkpt><trkpt lat="45.789008926012876" lon="11.906781626375578"><ele>104.0</ele><time>2026-05-02T10:21:34.001Z</time></trkpt><trkpt lat="45.78903848880302" lon="11.906872105308993"><ele>103.99999999999999</ele><time>2026-05-02T10:21:37.001Z</time></trkpt><trkpt lat="45.789057294756894" lon="11.906971581969325"><ele>104.0</ele><time>2026-05-02T10:21:39.001Z</time></trkpt><trkpt lat="45.789061302623246" lon="11.907100807566307"><ele>104.0</ele><time>2026-05-02T10:21:41.001Z</time></trkpt><trkpt lat="45.789068447851925" lon="11.907230204166982"><ele>104.0</ele><time>2026-05-02T10:21:43.001Z</time></trkpt><trkpt lat="45.78909127466087" lon="11.907320109275606"><ele>103.99999999999999</ele><time>2026-05-02T10:21:45.002Z</time></trkpt><trkpt lat="45.789092143657584" lon="11.90744479923569"><ele>104.0</ele><time>2026-05-02T10:21:47.002Z</time></trkpt><trkpt lat="45.789101387905276" lon="11.907550090089149"><ele>104.14285714285714</ele><time>2026-05-02T10:21:49.002Z</time></trkpt><trkpt lat="45.7891129475145" lon="11.907640443002146"><ele>104.28571428571429</ele><time>2026-05-02T10:21:51.002Z</time></trkpt><trkpt lat="45.78912160537152" lon="11.907730770042859"><ele>104.42857142857143</ele><time>2026-05-02T10:21:53.002Z</time></trkpt><trkpt lat="45.7891307693319" lon="11.907841830687932"><ele>104.57142857142857</ele><time>2026-05-02T10:21:56.002Z</time></trkpt><trkpt lat="45.78915563225727" lon="11.907939617430007"><ele>104.71428571428572</ele><time>2026-05-02T10:22:07.002Z</time></trkpt><trkpt lat="45.78915913393351" lon="11.908046312078252"><ele>104.85714285714286</ele><time>2026-05-02T10:22:16.002Z</time></trkpt><trkpt lat="45.78918716815921" lon="11.908150605150526"><ele>105.0</ele><time>2026-05-02T10:22:19.003Z</time></trkpt><trkpt lat="45.78924704293164" lon="11.908211518918646"><ele>105.0</ele><time>2026-05-02T10:22:21.003Z</time></trkpt><trkpt lat="45.789329038430544" lon="11.908281622995265"><ele>105.0</ele><time>2026-05-02T10:22:23.003Z</time></trkpt><trkpt lat="45.78942143146011" lon="11.908361856424174"><ele>105.0</ele><time>2026-05-02T10:22:25.003Z</time></trkpt><trkpt lat="45.789492272525706" lon="11.908454622500852"><ele>105.0</ele><time>2026-05-02T10:22:27.003Z</time></trkpt><trkpt lat="45.789564455915844" lon="11.908545881442114"><ele>105.0</ele><time>2026-05-02T10:22:29.003Z</time></trkpt><trkpt lat="45.78962422545856" lon="11.90863218935512"><ele>105.33333333333333</ele><time>2026-05-02T10:22:31.003Z</time></trkpt><trkpt lat="45.78967776453836" lon="11.908725493538615"><ele>105.66666666666666</ele><time>2026-05-02T10:22:33.003Z</time></trkpt><trkpt lat="45.789725529712236" lon="11.908826466580704"><ele>106.0</ele><time>2026-05-02T10:22:35.003Z</time></trkpt><trkpt lat="45.78977893064637" lon="11.908920567803166"><ele>106.33333333333333</ele><time>2026-05-02T10:22:37.003Z</time></trkpt><trkpt lat="45.78983671512716" lon="11.909007492829668"><ele>106.66666666666666</ele><time>2026-05-02T10:22:39.003Z</time></trkpt><trkpt lat="45.789896016200785" lon="11.909092831397531"><ele>107.0</ele><time>2026-05-02T10:22:41.003Z</time></trkpt><trkpt lat="45.78996480296183" lon="11.909164816469856"><ele>107.49999999999999</ele><time>2026-05-02T10:22:43.003Z</time></trkpt><trkpt lat="45.79002740915073" lon="11.909242378522384"><ele>108.0</ele><time>2026-05-02T10:22:44.999Z</time></trkpt><trkpt lat="45.79010006543302" lon="11.909312914211469"><ele>108.5</ele><time>2026-05-02T10:22:46.999Z</time></trkpt><trkpt lat="45.790173302189395" lon="11.909370539449853"><ele>109.0</ele><time>2026-05-02T10:22:48.999Z</time></trkpt><trkpt lat="45.790248574134445" lon="11.909426862798883"><ele>109.49999999999999</ele><time>2026-05-02T10:22:50.999Z</time></trkpt><trkpt lat="45.79033287016988" lon="11.9094663793266"><ele>110.0</ele><time>2026-05-02T10:22:53Z</time></trkpt><trkpt lat="45.7904220668617" lon="11.909519017562525"><ele>110.83333333333333</ele><time>2026-05-02T10:22:55Z</time></trkpt><trkpt lat="45.79049936073948" lon="11.909564812407647"><ele>111.66666666666666</ele><time>2026-05-02T10:22:57Z</time></trkpt><trkpt lat="45.79057519749915" lon="11.909617852057504"><ele>112.5</ele><time>2026-05-02T10:22:59Z</time></trkpt><trkpt lat="45.79065141278013" lon="11.909663694066184"><ele>113.33333333333334</ele><time>2026-05-02T10:23:01Z</time></trkpt><trkpt lat="45.79073284680737" lon="11.909720354542921"><ele>114.16666666666667</ele><time>2026-05-02T10:23:03Z</time></trkpt><trkpt lat="45.79080861331136" lon="11.909769216476974"><ele>115.0</ele><time>2026-05-02T10:23:05Z</time></trkpt><trkpt lat="45.7908880625072" lon="11.909814421581645"><ele>115.00000000000001</ele><time>2026-05-02T10:23:07Z</time></trkpt><trkpt lat="45.79096179928274" lon="11.909857996236518"><ele>115.0</ele><time>2026-05-02T10:23:09Z</time></trkpt><trkpt lat="45.79103971450952" lon="11.90990312618814"><ele>115.0</ele><time>2026-05-02T10:23:11Z</time></trkpt><trkpt lat="45.79111343770461" lon="11.909956068166043"><ele>115.0</ele><time>2026-05-02T10:23:13Z</time></trkpt><trkpt lat="45.79118403392191" lon="11.90999757368438"><ele>115.00000000000001</ele><time>2026-05-02T10:23:15Z</time></trkpt><trkpt lat="45.79125357173957" lon="11.910051025553324"><ele>115.0</ele><time>2026-05-02T10:23:17Z</time></trkpt><trkpt lat="45.79132039632058" lon="11.910096086389947"><ele>116.00000000000001</ele><time>2026-05-02T10:23:19.001Z</time></trkpt><trkpt lat="45.79138856993941" lon="11.91012465101056"><ele>117.0</ele><time>2026-05-02T10:23:21.001Z</time></trkpt><trkpt lat="45.79145354492934" lon="11.910185022956998"><ele>118.0</ele><time>2026-05-02T10:23:23.001Z</time></trkpt><trkpt lat="45.79151871940638" lon="11.910233648452614"><ele>119.0</ele><time>2026-05-02T10:23:25.001Z</time></trkpt><trkpt lat="45.79158180964755" lon="11.910280264674652"><ele>120.00000000000001</ele><time>2026-05-02T10:23:27.001Z</time></trkpt><trkpt lat="45.79164389652678" lon="11.910322471354535"><ele>121.0</ele><time>2026-05-02T10:23:29.001Z</time></trkpt><trkpt lat="45.79172142795985" lon="11.910390701872299"><ele>121.00000000000001</ele><time>2026-05-02T10:23:32.001Z</time></trkpt><trkpt lat="45.79179844868962" lon="11.910447822236206"><ele>121.0</ele><time>2026-05-02T10:23:35.001Z</time></trkpt><trkpt lat="45.79187787609544" lon="11.910504895930746"><ele>121.0</ele><time>2026-05-02T10:23:38.001Z</time></trkpt><trkpt lat="45.79194104826374" lon="11.910547713967475"><ele>121.0</ele><time>2026-05-02T10:23:41.001Z</time></trkpt><trkpt lat="45.79200067563942" lon="11.910603269249725"><ele>121.00000000000001</ele><time>2026-05-02T10:23:44.001Z</time></trkpt><trkpt lat="45.79207718545919" lon="11.91064780697459"><ele>121.0</ele><time>2026-05-02T10:23:47.001Z</time></trkpt><trkpt lat="45.79214829646016" lon="11.910697665599612"><ele>121.33333333333334</ele><time>2026-05-02T10:23:50.002Z</time></trkpt><trkpt lat="45.79221982816157" lon="11.910735532973984"><ele>121.66666666666667</ele><time>2026-05-02T10:23:53.002Z</time></trkpt><trkpt lat="45.79228813705679" lon="11.910778103154344"><ele>122.0</ele><time>2026-05-02T10:23:56.002Z</time></trkpt><trkpt lat="45.792363929643855" lon="11.910801341179356"><ele>122.33333333333334</ele><time>2026-05-02T10:23:59.002Z</time></trkpt><trkpt lat="45.79243278064202" lon="11.910834227945301"><ele>122.66666666666667</ele><time>2026-05-02T10:24:01.002Z</time></trkpt><trkpt lat="45.79249603303079" lon="11.910880070847876"><ele>123.0</ele><time>2026-05-02T10:24:03.002Z</time></trkpt><trkpt lat="45.79257869942764" lon="11.910919859163075"><ele>123.42857142857144</ele><time>2026-05-02T10:24:06.002Z</time></trkpt><trkpt lat="45.7926675597218" lon="11.91093112682013"><ele>123.85714285714286</ele><time>2026-05-02T10:24:09.002Z</time></trkpt><trkpt lat="45.792758256206106" lon="11.910957226564838"><ele>124.28571428571429</ele><time>2026-05-02T10:24:12.002Z</time></trkpt><trkpt lat="45.79282381466818" lon="11.910970515728879"><ele>124.71428571428572</ele><time>2026-05-02T10:24:14.002Z</time></trkpt><trkpt lat="45.79288727207828" lon="11.910986362644493"><ele>125.14285714285714</ele><time>2026-05-02T10:24:16.002Z</time></trkpt><trkpt lat="45.79295020430773" lon="11.91099633445435"><ele>125.57142857142857</ele><time>2026-05-02T10:24:18.002Z</time></trkpt><trkpt lat="45.79301493579439" lon="11.91101168033438"><ele>126.0</ele><time>2026-05-02T10:24:20.002Z</time></trkpt><trkpt lat="45.79307787274738" lon="11.91103326968671"><ele>126.42857142857143</ele><time>2026-05-02T10:24:22.003Z</time></trkpt><trkpt lat="45.793142759770106" lon="11.911040782456517"><ele>126.85714285714286</ele><time>2026-05-02T10:24:24.003Z</time></trkpt><trkpt lat="45.79320745175233" lon="11.91106047598391"><ele>127.28571428571428</ele><time>2026-05-02T10:24:26.003Z</time></trkpt><trkpt lat="45.79327547659946" lon="11.91107707896646"><ele>127.71428571428571</ele><time>2026-05-02T10:24:28.003Z</time></trkpt><trkpt lat="45.79334886451076" lon="11.911071163911314"><ele>128.14285714285714</ele><time>2026-05-02T10:24:30.003Z</time></trkpt><trkpt lat="45.79342042251595" lon="11.911062753191798"><ele>128.57142857142856</ele><time>2026-05-02T10:24:32.003Z</time></trkpt><trkpt lat="45.79349715751811" lon="11.911053034355746"><ele>129.0</ele><time>2026-05-02T10:24:34.003Z</time></trkpt><trkpt lat="45.79356527766974" lon="11.911037837301988"><ele>129.66666666666666</ele><time>2026-05-02T10:24:36.003Z</time></trkpt><trkpt lat="45.79362895202852" lon="11.911025288854185"><ele>130.33333333333334</ele><time>2026-05-02T10:24:38.003Z</time></trkpt><trkpt lat="45.79371920796914" lon="11.91100510438152"><ele>131.0</ele><time>2026-05-02T10:24:41.003Z</time></trkpt><trkpt lat="45.79380522041128" lon="11.910965939600484"><ele>131.66666666666669</ele><time>2026-05-02T10:24:45.003Z</time></trkpt><trkpt lat="45.79387441796548" lon="11.910956062844265"><ele>132.33333333333334</ele><time>2026-05-02T10:24:47.003Z</time></trkpt><trkpt lat="45.79396642135358" lon="11.910933714911806"><ele>133.0</ele><time>2026-05-02T10:24:50.003Z</time></trkpt><trkpt lat="45.79406115529139" lon="11.910918655721856"><ele>133.66666666666669</ele><time>2026-05-02T10:24:53Z</time></trkpt><trkpt lat="45.79412332078298" lon="11.910891595963873"><ele>134.33333333333334</ele><time>2026-05-02T10:24:55Z</time></trkpt><trkpt lat="45.794213314360434" lon="11.910870348442657"><ele>135.0</ele><time>2026-05-02T10:24:58Z</time></trkpt><trkpt lat="45.79430404924439" lon="11.91085075864125"><ele>135.66666666666666</ele><time>2026-05-02T10:25:01Z</time></trkpt><trkpt lat="45.79439707904379" lon="11.91083726748832"><ele>136.33333333333331</ele><time>2026-05-02T10:25:04Z</time></trkpt><trkpt lat="45.79446193071796" lon="11.910829370304741"><ele>137.0</ele><time>2026-05-02T10:25:06Z</time></trkpt><trkpt lat="45.794524940913305" lon="11.910823419144998"><ele>137.0</ele><time>2026-05-02T10:25:08Z</time></trkpt><trkpt lat="45.79461633250246" lon="11.910821915460934"><ele>137.0</ele><time>2026-05-02T10:25:11Z</time></trkpt><trkpt lat="45.794678946317724" lon="11.910836249572023"><ele>137.0</ele><time>2026-05-02T10:25:13Z</time></trkpt><trkpt lat="45.79476529106466" lon="11.910849084829938"><ele>137.0</ele><time>2026-05-02T10:25:16Z</time></trkpt><trkpt lat="45.79483093049862" lon="11.910853059139344"><ele>137.0</ele><time>2026-05-02T10:25:18Z</time></trkpt><trkpt lat="45.79491795449411" lon="11.910870474847892"><ele>137.0</ele><time>2026-05-02T10:25:21.001Z</time></trkpt><trkpt lat="45.795004628695594" lon="11.910899637040304"><ele>138.66666666666666</ele><time>2026-05-02T10:25:24.001Z</time></trkpt><trkpt lat="45.79508594294213" lon="11.910928589810693"><ele>140.33333333333331</ele><time>2026-05-02T10:25:27.001Z</time></trkpt><trkpt lat="45.79516766946601" lon="11.910944797619297"><ele>142.0</ele><time>2026-05-02T10:25:30.001Z</time></trkpt><trkpt lat="45.795254827895725" lon="11.910947074251709"><ele>143.66666666666666</ele><time>2026-05-02T10:25:33.001Z</time></trkpt><trkpt lat="45.79534475867163" lon="11.91093810401512"><ele>145.33333333333334</ele><time>2026-05-02T10:25:36.001Z</time></trkpt><trkpt lat="45.79541003229461" lon="11.91093128267393"><ele>147.0</ele><time>2026-05-02T10:25:38.001Z</time></trkpt><trkpt lat="45.79547338316125" lon="11.910927505411896"><ele>148.66666666666666</ele><time>2026-05-02T10:25:40.001Z</time></trkpt><trkpt lat="45.79556267661573" lon="11.910948347006828"><ele>150.33333333333334</ele><time>2026-05-02T10:25:43.001Z</time></trkpt><trkpt lat="45.79562945149349" lon="11.910967408949178"><ele>152.0</ele><time>2026-05-02T10:25:45.001Z</time></trkpt><trkpt lat="45.7957095363699" lon="11.911004791696483"><ele>153.66666666666669</ele><time>2026-05-02T10:25:48.001Z</time></trkpt><trkpt lat="45.795790211239854" lon="11.911047854586469"><ele>155.33333333333334</ele><time>2026-05-02T10:25:51.001Z</time></trkpt><trkpt lat="45.795872173007076" lon="11.91107895411285"><ele>157.0</ele><time>2026-05-02T10:25:54.002Z</time></trkpt><trkpt lat="45.795950044203245" lon="11.911119909456156"><ele>156.16666666666669</ele><time>2026-05-02T10:25:57.002Z</time></trkpt><trkpt lat="45.79603333230377" lon="11.911154391435746"><ele>155.33333333333334</ele><time>2026-05-02T10:26:00.002Z</time></trkpt><trkpt lat="45.79611354744056" lon="11.911191741440803"><ele>154.5</ele><time>2026-05-02T10:26:03.002Z</time></trkpt><trkpt lat="45.79619501841441" lon="11.9112437147825"><ele>153.66666666666666</ele><time>2026-05-02T10:26:06.002Z</time></trkpt><trkpt lat="45.79627721339231" lon="11.911294344671525"><ele>152.83333333333331</ele><time>2026-05-02T10:26:09.002Z</time></trkpt><trkpt lat="45.79634671861155" lon="11.911351874682309"><ele>152.0</ele><time>2026-05-02T10:26:12.002Z</time></trkpt><trkpt lat="45.796413715533745" lon="11.911417879571793"><ele>152.0</ele><time>2026-05-02T10:26:15.002Z</time></trkpt><trkpt lat="45.796478964527374" lon="11.911484655389451"><ele>152.0</ele><time>2026-05-02T10:26:18.002Z</time></trkpt><trkpt lat="45.79654322897465" lon="11.91156174255168"><ele>152.0</ele><time>2026-05-02T10:26:21.002Z</time></trkpt><trkpt lat="45.796612995849955" lon="11.911645433317133"><ele>152.0</ele><time>2026-05-02T10:26:24.002Z</time></trkpt><trkpt lat="45.79666264995451" lon="11.911708289137172"><ele>152.0</ele><time>2026-05-02T10:26:26.003Z</time></trkpt><trkpt lat="45.796708079407274" lon="11.911772092006766"><ele>152.0</ele><time>2026-05-02T10:26:28.003Z</time></trkpt><trkpt lat="45.796752502926346" lon="11.911837087173646"><ele>152.0</ele><time>2026-05-02T10:26:30.003Z</time></trkpt><trkpt lat="45.79679547614419" lon="11.911915373318806"><ele>152.85714285714286</ele><time>2026-05-02T10:26:32.003Z</time></trkpt><trkpt lat="45.79685256599132" lon="11.912013846962536"><ele>153.71428571428572</ele><time>2026-05-02T10:26:35.003Z</time></trkpt><trkpt lat="45.79690862508547" lon="11.912119335629956"><ele>154.57142857142858</ele><time>2026-05-02T10:26:38.003Z</time></trkpt><trkpt lat="45.796948056711834" lon="11.912191910318388"><ele>155.42857142857144</ele><time>2026-05-02T10:26:40.003Z</time></trkpt><trkpt lat="45.79697971119009" lon="11.912271073574031"><ele>156.28571428571428</ele><time>2026-05-02T10:26:42.003Z</time></trkpt><trkpt lat="45.797015669764406" lon="11.91235188845709"><ele>157.14285714285717</ele><time>2026-05-02T10:26:44.003Z</time></trkpt><trkpt lat="45.797038603415245" lon="11.912436762005136"><ele>158.0</ele><time>2026-05-02T10:26:46.003Z</time></trkpt><trkpt lat="45.79708012909013" lon="11.912524349122398"><ele>159.5</ele><time>2026-05-02T10:26:49.003Z</time></trkpt><trkpt lat="45.79712054483996" lon="11.912647318661374"><ele>161.0</ele><time>2026-05-02T10:26:52.003Z</time></trkpt><trkpt lat="45.797165450234225" lon="11.912735042356521"><ele>162.5</ele><time>2026-05-02T10:26:55.003Z</time></trkpt><trkpt lat="45.797221346379125" lon="11.912804674377535"><ele>164.0</ele><time>2026-05-02T10:26:58Z</time></trkpt><trkpt lat="45.79726850761242" lon="11.912870219731648"><ele>165.5</ele><time>2026-05-02T10:27:00Z</time></trkpt><trkpt lat="45.79731974623297" lon="11.912960684210613"><ele>167.0</ele><time>2026-05-02T10:27:03Z</time></trkpt><trkpt lat="45.7973824121483" lon="11.91303655354531"><ele>167.0</ele><time>2026-05-02T10:27:06Z</time></trkpt><trkpt lat="45.797432260455636" lon="11.913123826845299"><ele>167.0</ele><time>2026-05-02T10:27:09Z</time></trkpt><trkpt lat="45.79747562295913" lon="11.913202954953043"><ele>167.0</ele><time>2026-05-02T10:27:12Z</time></trkpt><trkpt lat="45.797497113366106" lon="11.913290469246451"><ele>167.0</ele><time>2026-05-02T10:27:15Z</time></trkpt><trkpt lat="45.79754419789838" lon="11.913371697827412"><ele>167.0</ele><time>2026-05-02T10:27:20Z</time></trkpt><trkpt lat="45.79760569076906" lon="11.913442037683472"><ele>167.0</ele><time>2026-05-02T10:30:42.002Z</time></trkpt><trkpt lat="45.79764656151137" lon="11.913522134605996"><ele>167.0</ele><time>2026-05-02T10:30:45.002Z</time></trkpt><trkpt lat="45.797689800139636" lon="11.913605272563984"><ele>168.85714285714286</ele><time>2026-05-02T10:30:48.002Z</time></trkpt><trkpt lat="45.797729379710155" lon="11.913677268068886"><ele>170.71428571428572</ele><time>2026-05-02T10:30:51.002Z</time></trkpt><trkpt lat="45.79777174217851" lon="11.91378633364794"><ele>172.57142857142856</ele><time>2026-05-02T10:30:54.002Z</time></trkpt><trkpt lat="45.79781394710828" lon="11.913864236196853"><ele>174.42857142857144</ele><time>2026-05-02T10:30:56.003Z</time></trkpt><trkpt lat="45.797861590216954" lon="11.913940418468153"><ele>176.2857142857143</ele><time>2026-05-02T10:30:58.003Z</time></trkpt><trkpt lat="45.79788289504749" lon="11.914057024616133"><ele>178.14285714285714</ele><time>2026-05-02T10:31:00.003Z</time></trkpt><trkpt lat="45.79792908477014" lon="11.914129406001459"><ele>180.0</ele><time>2026-05-02T10:31:02.003Z</time></trkpt><trkpt lat="45.79795201444844" lon="11.914230031330609"><ele>179.83333333333334</ele><time>2026-05-02T10:31:04.003Z</time></trkpt><trkpt lat="45.797972257171764" lon="11.914333139733866"><ele>179.66666666666666</ele><time>2026-05-02T10:31:06.003Z</time></trkpt><trkpt lat="45.79799314614918" lon="11.914436531865974"><ele>179.5</ele><time>2026-05-02T10:31:08.003Z</time></trkpt><trkpt lat="45.79800443349009" lon="11.914544065939726"><ele>179.33333333333331</ele><time>2026-05-02T10:31:10Z</time></trkpt><trkpt lat="45.798026200628534" lon="11.914643950815561"><ele>179.16666666666666</ele><time>2026-05-02T10:31:12Z</time></trkpt><trkpt lat="45.79804509686131" lon="11.91475457729485"><ele>179.0</ele><time>2026-05-02T10:31:14Z</time></trkpt><trkpt lat="45.798053061720275" lon="11.914859179466664"><ele>179.0</ele><time>2026-05-02T10:31:16Z</time></trkpt><trkpt lat="45.79806721572931" lon="11.914971994247718"><ele>179.0</ele><time>2026-05-02T10:31:18Z</time></trkpt><trkpt lat="45.79810505035536" lon="11.915085159334268"><ele>179.0</ele><time>2026-05-02T10:31:20Z</time></trkpt><trkpt lat="45.79817860455016" lon="11.915120350046903"><ele>179.0</ele><time>2026-05-02T10:31:22Z</time></trkpt><trkpt lat="45.79826215271727" lon="11.915129878991658"><ele>179.0</ele><time>2026-05-02T10:31:24Z</time></trkpt><trkpt lat="45.79834323648604" lon="11.915156433393932"><ele>179.0</ele><time>2026-05-02T10:31:26Z</time></trkpt><trkpt lat="45.79842440814195" lon="11.915189093719931"><ele>178.83333333333331</ele><time>2026-05-02T10:31:28Z</time></trkpt><trkpt lat="45.7985075466553" lon="11.91519647486566"><ele>178.66666666666666</ele><time>2026-05-02T10:31:30Z</time></trkpt><trkpt lat="45.79858093146616" lon="11.91516069719196"><ele>178.5</ele><time>2026-05-02T10:31:32Z</time></trkpt><trkpt lat="45.798663151980634" lon="11.915114207449415"><ele>178.33333333333334</ele><time>2026-05-02T10:31:34Z</time></trkpt><trkpt lat="45.79874106075883" lon="11.91505390437432"><ele>178.16666666666669</ele><time>2026-05-02T10:31:36Z</time></trkpt><trkpt lat="45.79880861662985" lon="11.914976587526889"><ele>178.0</ele><time>2026-05-02T10:31:38Z</time></trkpt><trkpt lat="45.79885905622584" lon="11.914884580854308"><ele>179.83333333333334</ele><time>2026-05-02T10:31:40Z</time></trkpt><trkpt lat="45.798911905854794" lon="11.914798598832986"><ele>181.66666666666669</ele><time>2026-05-02T10:31:42.001Z</time></trkpt><trkpt lat="45.798969110482304" lon="11.91470609639037"><ele>183.5</ele><time>2026-05-02T10:31:44.001Z</time></trkpt><trkpt lat="45.799021421695734" lon="11.91461887769819"><ele>185.33333333333334</ele><time>2026-05-02T10:31:46.001Z</time></trkpt><trkpt lat="45.79905654075055" lon="11.91451347745348"><ele>187.16666666666666</ele><time>2026-05-02T10:31:48.001Z</time></trkpt><trkpt lat="45.79909551706653" lon="11.914423613863676"><ele>189.0</ele><time>2026-05-02T10:31:50.001Z</time></trkpt><trkpt lat="45.79912886014801" lon="11.91433289761313"><ele>189.0</ele><time>2026-05-02T10:31:52.001Z</time></trkpt><trkpt lat="45.799167134286144" lon="11.91424582594295"><ele>189.0</ele><time>2026-05-02T10:31:54.001Z</time></trkpt><trkpt lat="45.7992145485361" lon="11.914167744540512"><ele>189.0</ele><time>2026-05-02T10:31:56.001Z</time></trkpt><trkpt lat="45.799256131997105" lon="11.914085683898405"><ele>189.0</ele><time>2026-05-02T10:31:58.001Z</time></trkpt><trkpt lat="45.79931450882074" lon="11.914015919001942"><ele>189.0</ele><time>2026-05-02T10:32:00.001Z</time></trkpt><trkpt lat="45.799373888776614" lon="11.913963495207641"><ele>189.0</ele><time>2026-05-02T10:32:02.001Z</time></trkpt><trkpt lat="45.79943574174696" lon="11.913914069117192"><ele>189.0</ele><time>2026-05-02T10:32:04.001Z</time></trkpt><trkpt lat="45.799505670674804" lon="11.913894460264391"><ele>191.57142857142858</ele><time>2026-05-02T10:32:06.001Z</time></trkpt><trkpt lat="45.7995890663356" lon="11.913847114642577"><ele>194.14285714285714</ele><time>2026-05-02T10:32:09.001Z</time></trkpt><trkpt lat="45.79967166437797" lon="11.91380804233594"><ele>196.71428571428572</ele><time>2026-05-02T10:32:12.001Z</time></trkpt><trkpt lat="45.799731049673454" lon="11.913777297492162"><ele>199.28571428571428</ele><time>2026-05-02T10:33:20.999Z</time></trkpt><trkpt lat="45.799798755207455" lon="11.913749141186864"><ele>201.85714285714286</ele><time>2026-05-02T10:33:22.999Z</time></trkpt><trkpt lat="45.79986060999014" lon="11.913729129556101"><ele>204.42857142857144</ele><time>2026-05-02T10:33:24.999Z</time></trkpt><trkpt lat="45.799928471394686" lon="11.913736321456343"><ele>207.0</ele><time>2026-05-02T10:33:26.999Z</time></trkpt><trkpt lat="45.799992812635274" lon="11.913760620930873"><ele>207.00000000000003</ele><time>2026-05-02T10:33:28.999Z</time></trkpt><trkpt lat="45.80005943036324" lon="11.913809791554764"><ele>207.0</ele><time>2026-05-02T10:33:30.999Z</time></trkpt><trkpt lat="45.80012162664939" lon="11.913840707828658"><ele>207.0</ele><time>2026-05-02T10:33:33Z</time></trkpt><trkpt lat="45.800183170557034" lon="11.913871294358747"><ele>207.0</ele><time>2026-05-02T10:33:35Z</time></trkpt><trkpt lat="45.80024026608631" lon="11.913911122170475"><ele>207.0</ele><time>2026-05-02T10:33:37Z</time></trkpt><trkpt lat="45.800317908331216" lon="11.913969264909067"><ele>207.00000000000003</ele><time>2026-05-02T10:33:40Z</time></trkpt><trkpt lat="45.80038541266966" lon="11.914016533419177"><ele>207.0</ele><time>2026-05-02T10:33:42Z</time></trkpt><trkpt lat="45.800449377239644" lon="11.914050289262613"><ele>207.14285714285717</ele><time>2026-05-02T10:33:44Z</time></trkpt><trkpt lat="45.80053019881925" lon="11.91411770687839"><ele>207.28571428571428</ele><time>2026-05-02T10:33:47Z</time></trkpt><trkpt lat="45.800594605017885" lon="11.91416356580618"><ele>207.42857142857144</ele><time>2026-05-02T10:33:49Z</time></trkpt><trkpt lat="45.800656215728786" lon="11.914203801594502"><ele>207.57142857142858</ele><time>2026-05-02T10:33:51Z</time></trkpt><trkpt lat="45.80071053915028" lon="11.914257933831996"><ele>207.71428571428572</ele><time>2026-05-02T10:33:53Z</time></trkpt><trkpt lat="45.80077005412718" lon="11.914299239401752"><ele>207.85714285714286</ele><time>2026-05-02T10:33:57Z</time></trkpt><trkpt lat="45.8007238835633" lon="11.914364147117674"><ele>208.0</ele><time>2026-05-02T10:34:14.001Z</time></trkpt><trkpt lat="45.80078620637386" lon="11.914295819478548"><ele>208.99999999999997</ele><time>2026-05-02T10:34:20.001Z</time></trkpt><trkpt lat="45.80086271052172" lon="11.914258314282037"><ele>210.0</ele><time>2026-05-02T10:34:22.001Z</time></trkpt><trkpt lat="45.8009418727143" lon="11.914289874192347"><ele>211.0</ele><time>2026-05-02T10:34:25.001Z</time></trkpt><trkpt lat="45.80101593820626" lon="11.914296777412988"><ele>212.0</ele><time>2026-05-02T10:34:29.001Z</time></trkpt><trkpt lat="45.8010889770492" lon="11.914320376177999"><ele>212.99999999999997</ele><time>2026-05-02T10:34:33.002Z</time></trkpt><trkpt lat="45.80115606589739" lon="11.914298271783418"><ele>214.0</ele><time>2026-05-02T10:34:40.002Z</time></trkpt><trkpt lat="45.801245249231016" lon="11.914285990427643"><ele>213.57142857142858</ele><time>2026-05-02T10:34:44.002Z</time></trkpt><trkpt lat="45.80133729577815" lon="11.914290709710984"><ele>213.14285714285714</ele><time>2026-05-02T10:34:47.002Z</time></trkpt><trkpt lat="45.801405860115885" lon="11.914298923557386"><ele>212.71428571428572</ele><time>2026-05-02T10:34:49.002Z</time></trkpt><trkpt lat="45.801484037731235" lon="11.914309158432484"><ele>212.28571428571428</ele><time>2026-05-02T10:34:51.002Z</time></trkpt><trkpt lat="45.80155342108004" lon="11.914312529839913"><ele>211.85714285714286</ele><time>2026-05-02T10:34:53.002Z</time></trkpt><trkpt lat="45.8016202446974" lon="11.914277593295662"><ele>211.42857142857144</ele><time>2026-05-02T10:34:55.002Z</time></trkpt><trkpt lat="45.80167831485267" lon="11.914228705278681"><ele>211.0</ele><time>2026-05-02T10:34:57.002Z</time></trkpt><trkpt lat="45.80174110920796" lon="11.914182537024368"><ele>210.99999999999997</ele><time>2026-05-02T10:34:59.002Z</time></trkpt><trkpt lat="45.80180460914616" lon="11.914085434559459"><ele>211.0</ele><time>2026-05-02T10:35:02.002Z</time></trkpt><trkpt lat="45.801888094178764" lon="11.914058864211938"><ele>211.0</ele><time>2026-05-02T10:35:04.002Z</time></trkpt><trkpt lat="45.80196197470056" lon="11.913995728677685"><ele>211.0</ele><time>2026-05-02T10:35:06.002Z</time></trkpt><trkpt lat="45.80200218041745" lon="11.913905833422488"><ele>210.99999999999997</ele><time>2026-05-02T10:35:08.002Z</time></trkpt><trkpt lat="45.802065980881416" lon="11.913842417961874"><ele>211.0</ele><time>2026-05-02T10:35:10.002Z</time></trkpt><trkpt lat="45.80211255075885" lon="11.913777526761137"><ele>223.0</ele><time>2026-05-02T10:35:12.003Z</time></trkpt><trkpt lat="45.802188035997204" lon="11.913743237814716"><ele>223.0</ele><time>2026-05-02T10:35:15.003Z</time></trkpt></trkseg></trk></gpx>